<?xml version="1.0" encoding="UTF-8" standalone="no" ?>
<gpx xmlns="http://www.topografix.com/GPX/1/1" xmlns:xsi="http://www.w3.org/2001/XMLSchema-instance" xsi:schemaLocation="http://www.topografix.com/GPX/1/1 http://www.topografix.com/GPX/1/1/gpx.xsd" version="1.1" creator="VisuGPX - https://www.visugpx.com">
  <metadata>
    <name>Acheux-en -Amienois</name>
  </metadata>
  <trk>
    <name><![CDATA[Acheux en Amienoisl: 02 FEV 2022 13:56]]></name>
    <trkseg>
      <trkpt lat="50.07065" lon="2.52581">
        <ele>131.36</ele>
        <time>2022-02-02T12:56:33Z</time>
      </trkpt>
      <trkpt lat="50.07056" lon="2.52589">
        <ele>139.53</ele>
        <time>2022-02-02T12:56:55Z</time>
      </trkpt>
      <trkpt lat="50.07054" lon="2.52587">
        <ele>140.49</ele>
        <time>2022-02-02T12:57:09Z</time>
      </trkpt>
      <trkpt lat="50.07053" lon="2.52584">
        <ele>141.45</ele>
        <time>2022-02-02T12:57:23Z</time>
      </trkpt>
      <trkpt lat="50.07052" lon="2.52587">
        <ele>139.53</ele>
        <time>2022-02-02T12:57:39Z</time>
      </trkpt>
      <trkpt lat="50.07052" lon="2.52588">
        <ele>140.01</ele>
        <time>2022-02-02T12:58:02Z</time>
      </trkpt>
      <trkpt lat="50.07051" lon="2.52589">
        <ele>139.05</ele>
        <time>2022-02-02T12:58:22Z</time>
      </trkpt>
      <trkpt lat="50.0705" lon="2.52589">
        <ele>138.09</ele>
        <time>2022-02-02T12:58:41Z</time>
      </trkpt>
      <trkpt lat="50.07049" lon="2.52589">
        <ele>138.57</ele>
        <time>2022-02-02T12:59:01Z</time>
      </trkpt>
      <trkpt lat="50.0705" lon="2.52587">
        <ele>138.09</ele>
        <time>2022-02-02T12:59:22Z</time>
      </trkpt>
      <trkpt lat="50.0705" lon="2.52588">
        <ele>138.09</ele>
        <time>2022-02-02T12:59:46Z</time>
      </trkpt>
      <trkpt lat="50.0705" lon="2.52588">
        <ele>138.57</ele>
        <time>2022-02-02T13:00:09Z</time>
      </trkpt>
      <trkpt lat="50.07053" lon="2.52584">
        <ele>138.09</ele>
        <time>2022-02-02T13:00:22Z</time>
      </trkpt>
      <trkpt lat="50.0706" lon="2.52578">
        <ele>138.09</ele>
        <time>2022-02-02T13:00:28Z</time>
      </trkpt>
      <trkpt lat="50.07065" lon="2.52578">
        <ele>137.61</ele>
        <time>2022-02-02T13:00:33Z</time>
      </trkpt>
      <trkpt lat="50.07077" lon="2.52605">
        <ele>138.57</ele>
        <time>2022-02-02T13:00:50Z</time>
      </trkpt>
      <trkpt lat="50.07077" lon="2.52607">
        <ele>138.57</ele>
        <time>2022-02-02T13:00:51Z</time>
      </trkpt>
      <trkpt lat="50.07077" lon="2.5261">
        <ele>139.05</ele>
        <time>2022-02-02T13:00:53Z</time>
      </trkpt>
      <trkpt lat="50.07083" lon="2.52627">
        <ele>139.05</ele>
        <time>2022-02-02T13:01:04Z</time>
      </trkpt>
      <trkpt lat="50.07089" lon="2.52647">
        <ele>138.09</ele>
        <time>2022-02-02T13:01:17Z</time>
      </trkpt>
      <trkpt lat="50.07094" lon="2.52668">
        <ele>137.13</ele>
        <time>2022-02-02T13:01:30Z</time>
      </trkpt>
      <trkpt lat="50.07101" lon="2.52693">
        <ele>137.13</ele>
        <time>2022-02-02T13:01:44Z</time>
      </trkpt>
      <trkpt lat="50.07107" lon="2.52714">
        <ele>135.68</ele>
        <time>2022-02-02T13:01:57Z</time>
      </trkpt>
      <trkpt lat="50.07115" lon="2.52739">
        <ele>135.68</ele>
        <time>2022-02-02T13:02:11Z</time>
      </trkpt>
      <trkpt lat="50.07122" lon="2.52761">
        <ele>137.13</ele>
        <time>2022-02-02T13:02:24Z</time>
      </trkpt>
      <trkpt lat="50.07126" lon="2.52773">
        <ele>138.09</ele>
        <time>2022-02-02T13:02:31Z</time>
      </trkpt>
      <trkpt lat="50.07127" lon="2.52785">
        <ele>138.09</ele>
        <time>2022-02-02T13:02:40Z</time>
      </trkpt>
      <trkpt lat="50.07109" lon="2.52792">
        <ele>137.13</ele>
        <time>2022-02-02T13:02:54Z</time>
      </trkpt>
      <trkpt lat="50.07094" lon="2.52795">
        <ele>137.13</ele>
        <time>2022-02-02T13:03:07Z</time>
      </trkpt>
      <trkpt lat="50.0708" lon="2.52798">
        <ele>136.64</ele>
        <time>2022-02-02T13:03:19Z</time>
      </trkpt>
      <trkpt lat="50.07059" lon="2.528">
        <ele>137.61</ele>
        <time>2022-02-02T13:03:35Z</time>
      </trkpt>
      <trkpt lat="50.07054" lon="2.52798">
        <ele>138.09</ele>
        <time>2022-02-02T13:03:40Z</time>
      </trkpt>
      <trkpt lat="50.07039" lon="2.5278">
        <ele>138.09</ele>
        <time>2022-02-02T13:03:55Z</time>
      </trkpt>
      <trkpt lat="50.07021" lon="2.52763">
        <ele>136.64</ele>
        <time>2022-02-02T13:04:12Z</time>
      </trkpt>
      <trkpt lat="50.07004" lon="2.5275">
        <ele>136.64</ele>
        <time>2022-02-02T13:04:26Z</time>
      </trkpt>
      <trkpt lat="50.06984" lon="2.52739">
        <ele>137.61</ele>
        <time>2022-02-02T13:04:41Z</time>
      </trkpt>
      <trkpt lat="50.06965" lon="2.52728">
        <ele>137.61</ele>
        <time>2022-02-02T13:04:56Z</time>
      </trkpt>
      <trkpt lat="50.06942" lon="2.52717">
        <ele>137.13</ele>
        <time>2022-02-02T13:05:14Z</time>
      </trkpt>
      <trkpt lat="50.0692" lon="2.52707">
        <ele>137.13</ele>
        <time>2022-02-02T13:05:30Z</time>
      </trkpt>
      <trkpt lat="50.06901" lon="2.52694">
        <ele>135.68</ele>
        <time>2022-02-02T13:05:45Z</time>
      </trkpt>
      <trkpt lat="50.06883" lon="2.52684">
        <ele>134.24</ele>
        <time>2022-02-02T13:06:00Z</time>
      </trkpt>
      <trkpt lat="50.06865" lon="2.52672">
        <ele>134.72</ele>
        <time>2022-02-02T13:06:14Z</time>
      </trkpt>
      <trkpt lat="50.06849" lon="2.52661">
        <ele>133.76</ele>
        <time>2022-02-02T13:06:27Z</time>
      </trkpt>
      <trkpt lat="50.06834" lon="2.5265">
        <ele>133.28</ele>
        <time>2022-02-02T13:06:39Z</time>
      </trkpt>
      <trkpt lat="50.06818" lon="2.52634">
        <ele>131.36</ele>
        <time>2022-02-02T13:06:54Z</time>
      </trkpt>
      <trkpt lat="50.06802" lon="2.5262">
        <ele>129.43</ele>
        <time>2022-02-02T13:07:08Z</time>
      </trkpt>
      <trkpt lat="50.06779" lon="2.52603">
        <ele>128.47</ele>
        <time>2022-02-02T13:07:26Z</time>
      </trkpt>
      <trkpt lat="50.0676" lon="2.52585">
        <ele>128.47</ele>
        <time>2022-02-02T13:07:42Z</time>
      </trkpt>
      <trkpt lat="50.06736" lon="2.52563">
        <ele>127.99</ele>
        <time>2022-02-02T13:08:02Z</time>
      </trkpt>
      <trkpt lat="50.0672" lon="2.52547">
        <ele>127.99</ele>
        <time>2022-02-02T13:08:17Z</time>
      </trkpt>
      <trkpt lat="50.06699" lon="2.52527">
        <ele>127.03</ele>
        <time>2022-02-02T13:08:35Z</time>
      </trkpt>
      <trkpt lat="50.06682" lon="2.52507">
        <ele>127.03</ele>
        <time>2022-02-02T13:08:51Z</time>
      </trkpt>
      <trkpt lat="50.06665" lon="2.52488">
        <ele>126.07</ele>
        <time>2022-02-02T13:09:07Z</time>
      </trkpt>
      <trkpt lat="50.06646" lon="2.52467">
        <ele>124.63</ele>
        <time>2022-02-02T13:09:25Z</time>
      </trkpt>
      <trkpt lat="50.06629" lon="2.52446">
        <ele>123.67</ele>
        <time>2022-02-02T13:09:42Z</time>
      </trkpt>
      <trkpt lat="50.06611" lon="2.52423">
        <ele>123.67</ele>
        <time>2022-02-02T13:09:59Z</time>
      </trkpt>
      <trkpt lat="50.06596" lon="2.52397">
        <ele>122.71</ele>
        <time>2022-02-02T13:10:16Z</time>
      </trkpt>
      <trkpt lat="50.0658" lon="2.52369">
        <ele>121.26</ele>
        <time>2022-02-02T13:10:33Z</time>
      </trkpt>
      <trkpt lat="50.06564" lon="2.52346">
        <ele>120.78</ele>
        <time>2022-02-02T13:10:49Z</time>
      </trkpt>
      <trkpt lat="50.06551" lon="2.52328">
        <ele>120.3</ele>
        <time>2022-02-02T13:11:02Z</time>
      </trkpt>
      <trkpt lat="50.06532" lon="2.52304">
        <ele>118.86</ele>
        <time>2022-02-02T13:11:20Z</time>
      </trkpt>
      <trkpt lat="50.06517" lon="2.52284">
        <ele>117.9</ele>
        <time>2022-02-02T13:11:36Z</time>
      </trkpt>
      <trkpt lat="50.06503" lon="2.5226">
        <ele>115.5</ele>
        <time>2022-02-02T13:11:52Z</time>
      </trkpt>
      <trkpt lat="50.06495" lon="2.52253">
        <ele>115.5</ele>
        <time>2022-02-02T13:12:01Z</time>
      </trkpt>
      <trkpt lat="50.06489" lon="2.52247">
        <ele>115.01</ele>
        <time>2022-02-02T13:12:10Z</time>
      </trkpt>
      <trkpt lat="50.06487" lon="2.52242">
        <ele>115.01</ele>
        <time>2022-02-02T13:12:13Z</time>
      </trkpt>
      <trkpt lat="50.06476" lon="2.5223">
        <ele>115.01</ele>
        <time>2022-02-02T13:12:25Z</time>
      </trkpt>
      <trkpt lat="50.06465" lon="2.52217">
        <ele>114.53</ele>
        <time>2022-02-02T13:12:37Z</time>
      </trkpt>
      <trkpt lat="50.06452" lon="2.52206">
        <ele>114.05</ele>
        <time>2022-02-02T13:12:50Z</time>
      </trkpt>
      <trkpt lat="50.06438" lon="2.52188">
        <ele>115.5</ele>
        <time>2022-02-02T13:13:06Z</time>
      </trkpt>
      <trkpt lat="50.06426" lon="2.52174">
        <ele>115.5</ele>
        <time>2022-02-02T13:13:19Z</time>
      </trkpt>
      <trkpt lat="50.0641" lon="2.52157">
        <ele>114.05</ele>
        <time>2022-02-02T13:13:34Z</time>
      </trkpt>
      <trkpt lat="50.06394" lon="2.52152">
        <ele>114.53</ele>
        <time>2022-02-02T13:13:49Z</time>
      </trkpt>
      <trkpt lat="50.06377" lon="2.52166">
        <ele>114.53</ele>
        <time>2022-02-02T13:14:04Z</time>
      </trkpt>
      <trkpt lat="50.0636" lon="2.52184">
        <ele>114.53</ele>
        <time>2022-02-02T13:14:19Z</time>
      </trkpt>
      <trkpt lat="50.06343" lon="2.52202">
        <ele>116.46</ele>
        <time>2022-02-02T13:14:35Z</time>
      </trkpt>
      <trkpt lat="50.06326" lon="2.52222">
        <ele>118.86</ele>
        <time>2022-02-02T13:14:52Z</time>
      </trkpt>
      <trkpt lat="50.0631" lon="2.52238">
        <ele>119.82</ele>
        <time>2022-02-02T13:15:07Z</time>
      </trkpt>
      <trkpt lat="50.06292" lon="2.52254">
        <ele>119.82</ele>
        <time>2022-02-02T13:15:23Z</time>
      </trkpt>
      <trkpt lat="50.06273" lon="2.52272">
        <ele>120.78</ele>
        <time>2022-02-02T13:15:40Z</time>
      </trkpt>
      <trkpt lat="50.06253" lon="2.5229">
        <ele>121.74</ele>
        <time>2022-02-02T13:15:57Z</time>
      </trkpt>
      <trkpt lat="50.06233" lon="2.52301">
        <ele>124.15</ele>
        <time>2022-02-02T13:16:12Z</time>
      </trkpt>
      <trkpt lat="50.0621" lon="2.52305">
        <ele>125.59</ele>
        <time>2022-02-02T13:16:29Z</time>
      </trkpt>
      <trkpt lat="50.0619" lon="2.52311">
        <ele>127.51</ele>
        <time>2022-02-02T13:16:45Z</time>
      </trkpt>
      <trkpt lat="50.06166" lon="2.52317">
        <ele>129.43</ele>
        <time>2022-02-02T13:17:02Z</time>
      </trkpt>
      <trkpt lat="50.06149" lon="2.52322">
        <ele>129.43</ele>
        <time>2022-02-02T13:17:16Z</time>
      </trkpt>
      <trkpt lat="50.06131" lon="2.52325">
        <ele>128.95</ele>
        <time>2022-02-02T13:17:30Z</time>
      </trkpt>
      <trkpt lat="50.06115" lon="2.5233">
        <ele>128.95</ele>
        <time>2022-02-02T13:17:44Z</time>
      </trkpt>
      <trkpt lat="50.061" lon="2.52335">
        <ele>130.4</ele>
        <time>2022-02-02T13:17:57Z</time>
      </trkpt>
      <trkpt lat="50.06085" lon="2.52339">
        <ele>130.88</ele>
        <time>2022-02-02T13:18:09Z</time>
      </trkpt>
      <trkpt lat="50.06067" lon="2.52345">
        <ele>132.32</ele>
        <time>2022-02-02T13:18:24Z</time>
      </trkpt>
      <trkpt lat="50.06049" lon="2.5235">
        <ele>132.8</ele>
        <time>2022-02-02T13:18:39Z</time>
      </trkpt>
      <trkpt lat="50.0603" lon="2.52354">
        <ele>133.28</ele>
        <time>2022-02-02T13:18:54Z</time>
      </trkpt>
      <trkpt lat="50.06014" lon="2.52358">
        <ele>133.28</ele>
        <time>2022-02-02T13:19:07Z</time>
      </trkpt>
      <trkpt lat="50.05997" lon="2.52364">
        <ele>133.76</ele>
        <time>2022-02-02T13:19:21Z</time>
      </trkpt>
      <trkpt lat="50.05981" lon="2.52367">
        <ele>132.8</ele>
        <time>2022-02-02T13:19:35Z</time>
      </trkpt>
      <trkpt lat="50.05964" lon="2.52372">
        <ele>133.28</ele>
        <time>2022-02-02T13:19:50Z</time>
      </trkpt>
      <trkpt lat="50.05944" lon="2.52373">
        <ele>133.76</ele>
        <time>2022-02-02T13:20:06Z</time>
      </trkpt>
      <trkpt lat="50.05929" lon="2.52372">
        <ele>134.24</ele>
        <time>2022-02-02T13:20:19Z</time>
      </trkpt>
      <trkpt lat="50.05911" lon="2.52371">
        <ele>134.72</ele>
        <time>2022-02-02T13:20:34Z</time>
      </trkpt>
      <trkpt lat="50.05891" lon="2.5237">
        <ele>135.2</ele>
        <time>2022-02-02T13:20:50Z</time>
      </trkpt>
      <trkpt lat="50.05871" lon="2.52368">
        <ele>135.68</ele>
        <time>2022-02-02T13:21:05Z</time>
      </trkpt>
      <trkpt lat="50.0585" lon="2.52366">
        <ele>136.16</ele>
        <time>2022-02-02T13:21:21Z</time>
      </trkpt>
      <trkpt lat="50.05833" lon="2.52366">
        <ele>136.64</ele>
        <time>2022-02-02T13:21:34Z</time>
      </trkpt>
      <trkpt lat="50.05816" lon="2.52366">
        <ele>137.61</ele>
        <time>2022-02-02T13:21:47Z</time>
      </trkpt>
      <trkpt lat="50.05798" lon="2.52364">
        <ele>138.09</ele>
        <time>2022-02-02T13:22:01Z</time>
      </trkpt>
      <trkpt lat="50.05779" lon="2.52362">
        <ele>138.57</ele>
        <time>2022-02-02T13:22:15Z</time>
      </trkpt>
      <trkpt lat="50.05759" lon="2.5236">
        <ele>139.05</ele>
        <time>2022-02-02T13:22:29Z</time>
      </trkpt>
      <trkpt lat="50.05742" lon="2.52356">
        <ele>139.05</ele>
        <time>2022-02-02T13:22:42Z</time>
      </trkpt>
      <trkpt lat="50.0572" lon="2.52353">
        <ele>139.53</ele>
        <time>2022-02-02T13:22:59Z</time>
      </trkpt>
      <trkpt lat="50.05698" lon="2.52349">
        <ele>139.05</ele>
        <time>2022-02-02T13:23:15Z</time>
      </trkpt>
      <trkpt lat="50.05675" lon="2.52345">
        <ele>139.05</ele>
        <time>2022-02-02T13:23:33Z</time>
      </trkpt>
      <trkpt lat="50.05654" lon="2.5234">
        <ele>139.53</ele>
        <time>2022-02-02T13:23:48Z</time>
      </trkpt>
      <trkpt lat="50.05634" lon="2.52335">
        <ele>140.01</ele>
        <time>2022-02-02T13:24:03Z</time>
      </trkpt>
      <trkpt lat="50.05609" lon="2.52328">
        <ele>139.05</ele>
        <time>2022-02-02T13:24:22Z</time>
      </trkpt>
      <trkpt lat="50.05589" lon="2.52323">
        <ele>138.57</ele>
        <time>2022-02-02T13:24:38Z</time>
      </trkpt>
      <trkpt lat="50.05567" lon="2.52317">
        <ele>138.09</ele>
        <time>2022-02-02T13:24:55Z</time>
      </trkpt>
      <trkpt lat="50.0556" lon="2.52315">
        <ele>138.09</ele>
        <time>2022-02-02T13:25:07Z</time>
      </trkpt>
      <trkpt lat="50.05555" lon="2.52314">
        <ele>138.57</ele>
        <time>2022-02-02T13:25:19Z</time>
      </trkpt>
      <trkpt lat="50.05552" lon="2.52313">
        <ele>137.61</ele>
        <time>2022-02-02T13:25:31Z</time>
      </trkpt>
      <trkpt lat="50.05552" lon="2.52314">
        <ele>137.61</ele>
        <time>2022-02-02T13:25:44Z</time>
      </trkpt>
      <trkpt lat="50.05551" lon="2.52315">
        <ele>137.13</ele>
        <time>2022-02-02T13:26:03Z</time>
      </trkpt>
      <trkpt lat="50.05551" lon="2.52315">
        <ele>137.13</ele>
        <time>2022-02-02T13:26:21Z</time>
      </trkpt>
      <trkpt lat="50.0555" lon="2.52317">
        <ele>136.64</ele>
        <time>2022-02-02T13:26:39Z</time>
      </trkpt>
      <trkpt lat="50.05549" lon="2.5233">
        <ele>137.13</ele>
        <time>2022-02-02T13:26:51Z</time>
      </trkpt>
      <trkpt lat="50.05549" lon="2.52333">
        <ele>137.13</ele>
        <time>2022-02-02T13:26:53Z</time>
      </trkpt>
      <trkpt lat="50.05547" lon="2.5236">
        <ele>137.61</ele>
        <time>2022-02-02T13:27:08Z</time>
      </trkpt>
      <trkpt lat="50.05543" lon="2.52388">
        <ele>138.57</ele>
        <time>2022-02-02T13:27:23Z</time>
      </trkpt>
      <trkpt lat="50.05533" lon="2.52418">
        <ele>138.57</ele>
        <time>2022-02-02T13:27:39Z</time>
      </trkpt>
      <trkpt lat="50.05518" lon="2.52453">
        <ele>140.01</ele>
        <time>2022-02-02T13:27:58Z</time>
      </trkpt>
      <trkpt lat="50.05503" lon="2.52484">
        <ele>141.45</ele>
        <time>2022-02-02T13:28:16Z</time>
      </trkpt>
      <trkpt lat="50.05487" lon="2.52514">
        <ele>143.85</ele>
        <time>2022-02-02T13:28:33Z</time>
      </trkpt>
      <trkpt lat="50.05476" lon="2.52535">
        <ele>144.34</ele>
        <time>2022-02-02T13:28:46Z</time>
      </trkpt>
      <trkpt lat="50.05468" lon="2.52558">
        <ele>144.82</ele>
        <time>2022-02-02T13:28:59Z</time>
      </trkpt>
      <trkpt lat="50.05458" lon="2.52587">
        <ele>143.37</ele>
        <time>2022-02-02T13:29:15Z</time>
      </trkpt>
      <trkpt lat="50.05448" lon="2.52615">
        <ele>141.93</ele>
        <time>2022-02-02T13:29:31Z</time>
      </trkpt>
      <trkpt lat="50.05436" lon="2.52644">
        <ele>140.97</ele>
        <time>2022-02-02T13:29:48Z</time>
      </trkpt>
      <trkpt lat="50.05426" lon="2.52667">
        <ele>140.49</ele>
        <time>2022-02-02T13:30:02Z</time>
      </trkpt>
      <trkpt lat="50.05415" lon="2.52693">
        <ele>140.97</ele>
        <time>2022-02-02T13:30:17Z</time>
      </trkpt>
      <trkpt lat="50.05404" lon="2.52723">
        <ele>141.45</ele>
        <time>2022-02-02T13:30:33Z</time>
      </trkpt>
      <trkpt lat="50.05405" lon="2.5275">
        <ele>142.89</ele>
        <time>2022-02-02T13:30:48Z</time>
      </trkpt>
      <trkpt lat="50.05412" lon="2.52762">
        <ele>142.89</ele>
        <time>2022-02-02T13:30:56Z</time>
      </trkpt>
      <trkpt lat="50.05418" lon="2.52783">
        <ele>142.41</ele>
        <time>2022-02-02T13:31:08Z</time>
      </trkpt>
      <trkpt lat="50.05428" lon="2.52816">
        <ele>140.97</ele>
        <time>2022-02-02T13:31:25Z</time>
      </trkpt>
      <trkpt lat="50.05436" lon="2.52839">
        <ele>141.93</ele>
        <time>2022-02-02T13:31:38Z</time>
      </trkpt>
      <trkpt lat="50.05446" lon="2.52871">
        <ele>142.89</ele>
        <time>2022-02-02T13:31:54Z</time>
      </trkpt>
      <trkpt lat="50.05453" lon="2.52898">
        <ele>143.37</ele>
        <time>2022-02-02T13:32:08Z</time>
      </trkpt>
      <trkpt lat="50.05456" lon="2.52927">
        <ele>143.85</ele>
        <time>2022-02-02T13:32:22Z</time>
      </trkpt>
      <trkpt lat="50.05461" lon="2.52959">
        <ele>143.85</ele>
        <time>2022-02-02T13:32:38Z</time>
      </trkpt>
      <trkpt lat="50.05464" lon="2.52992">
        <ele>144.34</ele>
        <time>2022-02-02T13:32:55Z</time>
      </trkpt>
      <trkpt lat="50.05468" lon="2.53027">
        <ele>146.26</ele>
        <time>2022-02-02T13:33:12Z</time>
      </trkpt>
      <trkpt lat="50.05472" lon="2.53065">
        <ele>146.74</ele>
        <time>2022-02-02T13:33:30Z</time>
      </trkpt>
      <trkpt lat="50.05475" lon="2.53097">
        <ele>148.18</ele>
        <time>2022-02-02T13:33:46Z</time>
      </trkpt>
      <trkpt lat="50.05478" lon="2.53131">
        <ele>148.66</ele>
        <time>2022-02-02T13:34:02Z</time>
      </trkpt>
      <trkpt lat="50.05481" lon="2.53168">
        <ele>148.66</ele>
        <time>2022-02-02T13:34:20Z</time>
      </trkpt>
      <trkpt lat="50.05482" lon="2.53199">
        <ele>149.14</ele>
        <time>2022-02-02T13:34:36Z</time>
      </trkpt>
      <trkpt lat="50.0548" lon="2.5321">
        <ele>149.62</ele>
        <time>2022-02-02T13:34:43Z</time>
      </trkpt>
      <trkpt lat="50.05474" lon="2.53212">
        <ele>149.62</ele>
        <time>2022-02-02T13:34:48Z</time>
      </trkpt>
      <trkpt lat="50.05455" lon="2.53209">
        <ele>149.14</ele>
        <time>2022-02-02T13:35:03Z</time>
      </trkpt>
      <trkpt lat="50.05439" lon="2.53206">
        <ele>149.14</ele>
        <time>2022-02-02T13:35:16Z</time>
      </trkpt>
      <trkpt lat="50.05421" lon="2.53202">
        <ele>149.62</ele>
        <time>2022-02-02T13:35:30Z</time>
      </trkpt>
      <trkpt lat="50.05399" lon="2.53202">
        <ele>151.54</ele>
        <time>2022-02-02T13:35:44Z</time>
      </trkpt>
      <trkpt lat="50.05377" lon="2.53193">
        <ele>152.99</ele>
        <time>2022-02-02T13:36:00Z</time>
      </trkpt>
      <trkpt lat="50.05362" lon="2.53189">
        <ele>151.54</ele>
        <time>2022-02-02T13:36:13Z</time>
      </trkpt>
      <trkpt lat="50.05344" lon="2.53184">
        <ele>150.58</ele>
        <time>2022-02-02T13:36:28Z</time>
      </trkpt>
      <trkpt lat="50.0533" lon="2.53181">
        <ele>149.14</ele>
        <time>2022-02-02T13:36:40Z</time>
      </trkpt>
      <trkpt lat="50.05314" lon="2.53177">
        <ele>149.14</ele>
        <time>2022-02-02T13:36:53Z</time>
      </trkpt>
      <trkpt lat="50.05298" lon="2.53173">
        <ele>148.66</ele>
        <time>2022-02-02T13:37:06Z</time>
      </trkpt>
      <trkpt lat="50.05281" lon="2.53167">
        <ele>147.22</ele>
        <time>2022-02-02T13:37:21Z</time>
      </trkpt>
      <trkpt lat="50.05276" lon="2.53167">
        <ele>146.26</ele>
        <time>2022-02-02T13:37:33Z</time>
      </trkpt>
      <trkpt lat="50.05276" lon="2.53167">
        <ele>145.78</ele>
        <time>2022-02-02T13:37:52Z</time>
      </trkpt>
      <trkpt lat="50.05276" lon="2.53168">
        <ele>145.78</ele>
        <time>2022-02-02T13:38:07Z</time>
      </trkpt>
      <trkpt lat="50.05276" lon="2.53169">
        <ele>146.26</ele>
        <time>2022-02-02T13:38:19Z</time>
      </trkpt>
      <trkpt lat="50.05276" lon="2.53169">
        <ele>146.26</ele>
        <time>2022-02-02T13:38:34Z</time>
      </trkpt>
      <trkpt lat="50.05272" lon="2.53171">
        <ele>145.78</ele>
        <time>2022-02-02T13:38:44Z</time>
      </trkpt>
      <trkpt lat="50.05269" lon="2.53178">
        <ele>145.3</ele>
        <time>2022-02-02T13:38:51Z</time>
      </trkpt>
      <trkpt lat="50.05263" lon="2.53193">
        <ele>144.34</ele>
        <time>2022-02-02T13:39:02Z</time>
      </trkpt>
      <trkpt lat="50.05251" lon="2.53208">
        <ele>144.34</ele>
        <time>2022-02-02T13:39:15Z</time>
      </trkpt>
      <trkpt lat="50.05238" lon="2.5322">
        <ele>142.89</ele>
        <time>2022-02-02T13:39:28Z</time>
      </trkpt>
      <trkpt lat="50.05219" lon="2.53237">
        <ele>143.85</ele>
        <time>2022-02-02T13:39:45Z</time>
      </trkpt>
      <trkpt lat="50.05203" lon="2.53251">
        <ele>143.85</ele>
        <time>2022-02-02T13:40:00Z</time>
      </trkpt>
      <trkpt lat="50.05202" lon="2.53251">
        <ele>143.85</ele>
        <time>2022-02-02T13:40:01Z</time>
      </trkpt>
      <trkpt lat="50.05191" lon="2.53233">
        <ele>141.93</ele>
        <time>2022-02-02T13:40:14Z</time>
      </trkpt>
      <trkpt lat="50.05181" lon="2.53207">
        <ele>143.37</ele>
        <time>2022-02-02T13:40:29Z</time>
      </trkpt>
      <trkpt lat="50.05173" lon="2.53182">
        <ele>142.89</ele>
        <time>2022-02-02T13:40:44Z</time>
      </trkpt>
      <trkpt lat="50.05163" lon="2.53159">
        <ele>141.93</ele>
        <time>2022-02-02T13:40:58Z</time>
      </trkpt>
      <trkpt lat="50.0515" lon="2.53153">
        <ele>141.93</ele>
        <time>2022-02-02T13:41:10Z</time>
      </trkpt>
      <trkpt lat="50.05131" lon="2.53148">
        <ele>141.93</ele>
        <time>2022-02-02T13:41:25Z</time>
      </trkpt>
      <trkpt lat="50.05117" lon="2.53146">
        <ele>141.93</ele>
        <time>2022-02-02T13:41:39Z</time>
      </trkpt>
      <trkpt lat="50.05101" lon="2.53145">
        <ele>138.57</ele>
        <time>2022-02-02T13:41:53Z</time>
      </trkpt>
      <trkpt lat="50.05087" lon="2.5314">
        <ele>136.64</ele>
        <time>2022-02-02T13:42:06Z</time>
      </trkpt>
      <trkpt lat="50.05079" lon="2.5313">
        <ele>133.76</ele>
        <time>2022-02-02T13:42:17Z</time>
      </trkpt>
      <trkpt lat="50.05067" lon="2.53111">
        <ele>128.95</ele>
        <time>2022-02-02T13:42:31Z</time>
      </trkpt>
      <trkpt lat="50.05056" lon="2.53088">
        <ele>128.47</ele>
        <time>2022-02-02T13:42:42Z</time>
      </trkpt>
      <trkpt lat="50.05043" lon="2.53065">
        <ele>130.88</ele>
        <time>2022-02-02T13:42:55Z</time>
      </trkpt>
      <trkpt lat="50.05034" lon="2.53054">
        <ele>133.28</ele>
        <time>2022-02-02T13:43:09Z</time>
      </trkpt>
      <trkpt lat="50.05016" lon="2.5305">
        <ele>133.76</ele>
        <time>2022-02-02T13:43:24Z</time>
      </trkpt>
      <trkpt lat="50.05" lon="2.53053">
        <ele>133.76</ele>
        <time>2022-02-02T13:43:37Z</time>
      </trkpt>
      <trkpt lat="50.04986" lon="2.53055">
        <ele>133.28</ele>
        <time>2022-02-02T13:43:49Z</time>
      </trkpt>
      <trkpt lat="50.0497" lon="2.53059">
        <ele>131.84</ele>
        <time>2022-02-02T13:44:02Z</time>
      </trkpt>
      <trkpt lat="50.04956" lon="2.53064">
        <ele>128.47</ele>
        <time>2022-02-02T13:44:16Z</time>
      </trkpt>
      <trkpt lat="50.04941" lon="2.53068">
        <ele>124.15</ele>
        <time>2022-02-02T13:44:29Z</time>
      </trkpt>
      <trkpt lat="50.04928" lon="2.53067">
        <ele>127.51</ele>
        <time>2022-02-02T13:44:37Z</time>
      </trkpt>
      <trkpt lat="50.04911" lon="2.53068">
        <ele>129.92</ele>
        <time>2022-02-02T13:44:49Z</time>
      </trkpt>
      <trkpt lat="50.04892" lon="2.53067">
        <ele>132.32</ele>
        <time>2022-02-02T13:45:02Z</time>
      </trkpt>
      <trkpt lat="50.04878" lon="2.53068">
        <ele>133.28</ele>
        <time>2022-02-02T13:45:13Z</time>
      </trkpt>
      <trkpt lat="50.04859" lon="2.53068">
        <ele>135.2</ele>
        <time>2022-02-02T13:45:27Z</time>
      </trkpt>
      <trkpt lat="50.04841" lon="2.53069">
        <ele>133.76</ele>
        <time>2022-02-02T13:45:41Z</time>
      </trkpt>
      <trkpt lat="50.04818" lon="2.53073">
        <ele>132.8</ele>
        <time>2022-02-02T13:45:59Z</time>
      </trkpt>
      <trkpt lat="50.04803" lon="2.53075">
        <ele>133.28</ele>
        <time>2022-02-02T13:46:12Z</time>
      </trkpt>
      <trkpt lat="50.048" lon="2.53074">
        <ele>133.76</ele>
        <time>2022-02-02T13:46:25Z</time>
      </trkpt>
      <trkpt lat="50.048" lon="2.53075">
        <ele>134.24</ele>
        <time>2022-02-02T13:46:38Z</time>
      </trkpt>
      <trkpt lat="50.048" lon="2.53075">
        <ele>134.72</ele>
        <time>2022-02-02T13:46:50Z</time>
      </trkpt>
      <trkpt lat="50.048" lon="2.53076">
        <ele>134.72</ele>
        <time>2022-02-02T13:46:53Z</time>
      </trkpt>
      <trkpt lat="50.04798" lon="2.53084">
        <ele>135.2</ele>
        <time>2022-02-02T13:46:58Z</time>
      </trkpt>
      <trkpt lat="50.04805" lon="2.53108">
        <ele>134.24</ele>
        <time>2022-02-02T13:47:12Z</time>
      </trkpt>
      <trkpt lat="50.04813" lon="2.53135">
        <ele>134.24</ele>
        <time>2022-02-02T13:47:27Z</time>
      </trkpt>
      <trkpt lat="50.04825" lon="2.53168">
        <ele>133.28</ele>
        <time>2022-02-02T13:47:45Z</time>
      </trkpt>
      <trkpt lat="50.04834" lon="2.53195">
        <ele>131.36</ele>
        <time>2022-02-02T13:48:00Z</time>
      </trkpt>
      <trkpt lat="50.04845" lon="2.53225">
        <ele>131.36</ele>
        <time>2022-02-02T13:48:17Z</time>
      </trkpt>
      <trkpt lat="50.04856" lon="2.53249">
        <ele>133.28</ele>
        <time>2022-02-02T13:48:31Z</time>
      </trkpt>
      <trkpt lat="50.04866" lon="2.53277">
        <ele>134.24</ele>
        <time>2022-02-02T13:48:46Z</time>
      </trkpt>
      <trkpt lat="50.04876" lon="2.53302">
        <ele>134.72</ele>
        <time>2022-02-02T13:49:01Z</time>
      </trkpt>
      <trkpt lat="50.04887" lon="2.53329">
        <ele>137.61</ele>
        <time>2022-02-02T13:49:16Z</time>
      </trkpt>
      <trkpt lat="50.04899" lon="2.53357">
        <ele>140.49</ele>
        <time>2022-02-02T13:49:32Z</time>
      </trkpt>
      <trkpt lat="50.04908" lon="2.53383">
        <ele>140.49</ele>
        <time>2022-02-02T13:49:47Z</time>
      </trkpt>
      <trkpt lat="50.04916" lon="2.53411">
        <ele>139.05</ele>
        <time>2022-02-02T13:50:03Z</time>
      </trkpt>
      <trkpt lat="50.04926" lon="2.53436">
        <ele>140.49</ele>
        <time>2022-02-02T13:50:17Z</time>
      </trkpt>
      <trkpt lat="50.04937" lon="2.53461">
        <ele>141.93</ele>
        <time>2022-02-02T13:50:32Z</time>
      </trkpt>
      <trkpt lat="50.04938" lon="2.53478">
        <ele>141.45</ele>
        <time>2022-02-02T13:50:43Z</time>
      </trkpt>
      <trkpt lat="50.04935" lon="2.53487">
        <ele>141.45</ele>
        <time>2022-02-02T13:50:52Z</time>
      </trkpt>
      <trkpt lat="50.04942" lon="2.53496">
        <ele>140.49</ele>
        <time>2022-02-02T13:51:03Z</time>
      </trkpt>
      <trkpt lat="50.04946" lon="2.53508">
        <ele>139.53</ele>
        <time>2022-02-02T13:51:13Z</time>
      </trkpt>
      <trkpt lat="50.04954" lon="2.53529">
        <ele>138.57</ele>
        <time>2022-02-02T13:51:26Z</time>
      </trkpt>
      <trkpt lat="50.04964" lon="2.53551">
        <ele>138.09</ele>
        <time>2022-02-02T13:51:40Z</time>
      </trkpt>
      <trkpt lat="50.04973" lon="2.53575">
        <ele>137.61</ele>
        <time>2022-02-02T13:51:54Z</time>
      </trkpt>
      <trkpt lat="50.04979" lon="2.53599">
        <ele>135.68</ele>
        <time>2022-02-02T13:52:07Z</time>
      </trkpt>
      <trkpt lat="50.04989" lon="2.53625">
        <ele>133.28</ele>
        <time>2022-02-02T13:52:22Z</time>
      </trkpt>
      <trkpt lat="50.05001" lon="2.53657">
        <ele>135.2</ele>
        <time>2022-02-02T13:52:39Z</time>
      </trkpt>
      <trkpt lat="50.05012" lon="2.53686">
        <ele>136.16</ele>
        <time>2022-02-02T13:52:55Z</time>
      </trkpt>
      <trkpt lat="50.05022" lon="2.53714">
        <ele>135.2</ele>
        <time>2022-02-02T13:53:11Z</time>
      </trkpt>
      <trkpt lat="50.05033" lon="2.53742">
        <ele>132.8</ele>
        <time>2022-02-02T13:53:27Z</time>
      </trkpt>
      <trkpt lat="50.05043" lon="2.53772">
        <ele>131.36</ele>
        <time>2022-02-02T13:53:43Z</time>
      </trkpt>
      <trkpt lat="50.05055" lon="2.53799">
        <ele>133.76</ele>
        <time>2022-02-02T13:53:58Z</time>
      </trkpt>
      <trkpt lat="50.05063" lon="2.53823">
        <ele>133.76</ele>
        <time>2022-02-02T13:54:13Z</time>
      </trkpt>
      <trkpt lat="50.0507" lon="2.53834">
        <ele>134.72</ele>
        <time>2022-02-02T13:54:27Z</time>
      </trkpt>
      <trkpt lat="50.05069" lon="2.53836">
        <ele>136.16</ele>
        <time>2022-02-02T13:54:51Z</time>
      </trkpt>
      <trkpt lat="50.05069" lon="2.53837">
        <ele>137.13</ele>
        <time>2022-02-02T13:55:09Z</time>
      </trkpt>
      <trkpt lat="50.05069" lon="2.53838">
        <ele>137.13</ele>
        <time>2022-02-02T13:55:29Z</time>
      </trkpt>
      <trkpt lat="50.05069" lon="2.53838">
        <ele>137.13</ele>
        <time>2022-02-02T13:55:44Z</time>
      </trkpt>
      <trkpt lat="50.05069" lon="2.53838">
        <ele>137.61</ele>
        <time>2022-02-02T13:56:04Z</time>
      </trkpt>
      <trkpt lat="50.05069" lon="2.53838">
        <ele>137.61</ele>
        <time>2022-02-02T13:56:23Z</time>
      </trkpt>
      <trkpt lat="50.05069" lon="2.53839">
        <ele>137.61</ele>
        <time>2022-02-02T13:56:46Z</time>
      </trkpt>
      <trkpt lat="50.05069" lon="2.5384">
        <ele>138.09</ele>
        <time>2022-02-02T13:57:00Z</time>
      </trkpt>
      <trkpt lat="50.05069" lon="2.5384">
        <ele>138.57</ele>
        <time>2022-02-02T13:57:10Z</time>
      </trkpt>
      <trkpt lat="50.05073" lon="2.53842">
        <ele>138.57</ele>
        <time>2022-02-02T13:57:25Z</time>
      </trkpt>
      <trkpt lat="50.05078" lon="2.53848">
        <ele>138.09</ele>
        <time>2022-02-02T13:57:31Z</time>
      </trkpt>
      <trkpt lat="50.05085" lon="2.53868">
        <ele>138.57</ele>
        <time>2022-02-02T13:57:45Z</time>
      </trkpt>
      <trkpt lat="50.0509" lon="2.5389">
        <ele>138.09</ele>
        <time>2022-02-02T13:57:56Z</time>
      </trkpt>
      <trkpt lat="50.05088" lon="2.53908">
        <ele>138.57</ele>
        <time>2022-02-02T13:58:07Z</time>
      </trkpt>
      <trkpt lat="50.05084" lon="2.53935">
        <ele>138.09</ele>
        <time>2022-02-02T13:58:21Z</time>
      </trkpt>
      <trkpt lat="50.05079" lon="2.53959">
        <ele>138.57</ele>
        <time>2022-02-02T13:58:35Z</time>
      </trkpt>
      <trkpt lat="50.05073" lon="2.53984">
        <ele>138.09</ele>
        <time>2022-02-02T13:58:49Z</time>
      </trkpt>
      <trkpt lat="50.05069" lon="2.54005">
        <ele>138.09</ele>
        <time>2022-02-02T13:59:01Z</time>
      </trkpt>
      <trkpt lat="50.05067" lon="2.54032">
        <ele>137.61</ele>
        <time>2022-02-02T13:59:15Z</time>
      </trkpt>
      <trkpt lat="50.05064" lon="2.54064">
        <ele>138.09</ele>
        <time>2022-02-02T13:59:31Z</time>
      </trkpt>
      <trkpt lat="50.05058" lon="2.54094">
        <ele>138.57</ele>
        <time>2022-02-02T13:59:46Z</time>
      </trkpt>
      <trkpt lat="50.05047" lon="2.54125">
        <ele>137.61</ele>
        <time>2022-02-02T14:00:04Z</time>
      </trkpt>
      <trkpt lat="50.05036" lon="2.54154">
        <ele>136.16</ele>
        <time>2022-02-02T14:00:20Z</time>
      </trkpt>
      <trkpt lat="50.05027" lon="2.54179">
        <ele>136.64</ele>
        <time>2022-02-02T14:00:34Z</time>
      </trkpt>
      <trkpt lat="50.05016" lon="2.54209">
        <ele>137.61</ele>
        <time>2022-02-02T14:00:50Z</time>
      </trkpt>
      <trkpt lat="50.05006" lon="2.54237">
        <ele>138.09</ele>
        <time>2022-02-02T14:01:06Z</time>
      </trkpt>
      <trkpt lat="50.04997" lon="2.54263">
        <ele>138.57</ele>
        <time>2022-02-02T14:01:21Z</time>
      </trkpt>
      <trkpt lat="50.04992" lon="2.54294">
        <ele>138.09</ele>
        <time>2022-02-02T14:01:37Z</time>
      </trkpt>
      <trkpt lat="50.04991" lon="2.54321">
        <ele>138.57</ele>
        <time>2022-02-02T14:01:52Z</time>
      </trkpt>
      <trkpt lat="50.0499" lon="2.54341">
        <ele>139.05</ele>
        <time>2022-02-02T14:02:07Z</time>
      </trkpt>
      <trkpt lat="50.0499" lon="2.54341">
        <ele>138.57</ele>
        <time>2022-02-02T14:02:21Z</time>
      </trkpt>
      <trkpt lat="50.0499" lon="2.54342">
        <ele>138.09</ele>
        <time>2022-02-02T14:02:35Z</time>
      </trkpt>
      <trkpt lat="50.04991" lon="2.54344">
        <ele>138.57</ele>
        <time>2022-02-02T14:02:43Z</time>
      </trkpt>
      <trkpt lat="50.05005" lon="2.54341">
        <ele>138.57</ele>
        <time>2022-02-02T14:02:56Z</time>
      </trkpt>
      <trkpt lat="50.05018" lon="2.54335">
        <ele>139.53</ele>
        <time>2022-02-02T14:03:07Z</time>
      </trkpt>
      <trkpt lat="50.05032" lon="2.54328">
        <ele>140.01</ele>
        <time>2022-02-02T14:03:20Z</time>
      </trkpt>
      <trkpt lat="50.05045" lon="2.54321">
        <ele>140.97</ele>
        <time>2022-02-02T14:03:32Z</time>
      </trkpt>
      <trkpt lat="50.05061" lon="2.54313">
        <ele>140.97</ele>
        <time>2022-02-02T14:03:45Z</time>
      </trkpt>
      <trkpt lat="50.05077" lon="2.54309">
        <ele>140.97</ele>
        <time>2022-02-02T14:03:58Z</time>
      </trkpt>
      <trkpt lat="50.05092" lon="2.54302">
        <ele>140.49</ele>
        <time>2022-02-02T14:04:10Z</time>
      </trkpt>
      <trkpt lat="50.05103" lon="2.54297">
        <ele>140.49</ele>
        <time>2022-02-02T14:04:19Z</time>
      </trkpt>
      <trkpt lat="50.05121" lon="2.54288">
        <ele>140.97</ele>
        <time>2022-02-02T14:04:34Z</time>
      </trkpt>
      <trkpt lat="50.05136" lon="2.54281">
        <ele>141.93</ele>
        <time>2022-02-02T14:04:47Z</time>
      </trkpt>
      <trkpt lat="50.0514" lon="2.54278">
        <ele>141.93</ele>
        <time>2022-02-02T14:04:51Z</time>
      </trkpt>
      <trkpt lat="50.0515" lon="2.54278">
        <ele>141.45</ele>
        <time>2022-02-02T14:04:58Z</time>
      </trkpt>
      <trkpt lat="50.05154" lon="2.54286">
        <ele>141.45</ele>
        <time>2022-02-02T14:05:03Z</time>
      </trkpt>
      <trkpt lat="50.05155" lon="2.54315">
        <ele>140.49</ele>
        <time>2022-02-02T14:05:18Z</time>
      </trkpt>
      <trkpt lat="50.05157" lon="2.54341">
        <ele>139.53</ele>
        <time>2022-02-02T14:05:32Z</time>
      </trkpt>
      <trkpt lat="50.05158" lon="2.54372">
        <ele>139.05</ele>
        <time>2022-02-02T14:05:47Z</time>
      </trkpt>
      <trkpt lat="50.05158" lon="2.54398">
        <ele>138.09</ele>
        <time>2022-02-02T14:06:00Z</time>
      </trkpt>
      <trkpt lat="50.05159" lon="2.54427">
        <ele>138.57</ele>
        <time>2022-02-02T14:06:15Z</time>
      </trkpt>
      <trkpt lat="50.05158" lon="2.54451">
        <ele>137.61</ele>
        <time>2022-02-02T14:06:28Z</time>
      </trkpt>
      <trkpt lat="50.0516" lon="2.54476">
        <ele>136.64</ele>
        <time>2022-02-02T14:06:41Z</time>
      </trkpt>
      <trkpt lat="50.05162" lon="2.54501">
        <ele>135.2</ele>
        <time>2022-02-02T14:06:54Z</time>
      </trkpt>
      <trkpt lat="50.05165" lon="2.54532">
        <ele>133.76</ele>
        <time>2022-02-02T14:07:09Z</time>
      </trkpt>
      <trkpt lat="50.05165" lon="2.54561">
        <ele>135.68</ele>
        <time>2022-02-02T14:07:23Z</time>
      </trkpt>
      <trkpt lat="50.05166" lon="2.54585">
        <ele>136.64</ele>
        <time>2022-02-02T14:07:35Z</time>
      </trkpt>
      <trkpt lat="50.05167" lon="2.54613">
        <ele>135.68</ele>
        <time>2022-02-02T14:07:49Z</time>
      </trkpt>
      <trkpt lat="50.05168" lon="2.54643">
        <ele>134.24</ele>
        <time>2022-02-02T14:08:04Z</time>
      </trkpt>
      <trkpt lat="50.05168" lon="2.54671">
        <ele>134.24</ele>
        <time>2022-02-02T14:08:18Z</time>
      </trkpt>
      <trkpt lat="50.05169" lon="2.54696">
        <ele>133.76</ele>
        <time>2022-02-02T14:08:31Z</time>
      </trkpt>
      <trkpt lat="50.0517" lon="2.54722">
        <ele>133.28</ele>
        <time>2022-02-02T14:08:45Z</time>
      </trkpt>
      <trkpt lat="50.05171" lon="2.54753">
        <ele>132.8</ele>
        <time>2022-02-02T14:09:01Z</time>
      </trkpt>
      <trkpt lat="50.05172" lon="2.5478">
        <ele>132.32</ele>
        <time>2022-02-02T14:09:15Z</time>
      </trkpt>
      <trkpt lat="50.05172" lon="2.54804">
        <ele>131.84</ele>
        <time>2022-02-02T14:09:28Z</time>
      </trkpt>
      <trkpt lat="50.05171" lon="2.54823">
        <ele>131.36</ele>
        <time>2022-02-02T14:09:40Z</time>
      </trkpt>
      <trkpt lat="50.05159" lon="2.54825">
        <ele>131.36</ele>
        <time>2022-02-02T14:09:51Z</time>
      </trkpt>
      <trkpt lat="50.05143" lon="2.54823">
        <ele>132.32</ele>
        <time>2022-02-02T14:10:04Z</time>
      </trkpt>
      <trkpt lat="50.05137" lon="2.54828">
        <ele>132.32</ele>
        <time>2022-02-02T14:10:10Z</time>
      </trkpt>
      <trkpt lat="50.05138" lon="2.5485">
        <ele>133.76</ele>
        <time>2022-02-02T14:10:23Z</time>
      </trkpt>
      <trkpt lat="50.05142" lon="2.54875">
        <ele>134.72</ele>
        <time>2022-02-02T14:10:36Z</time>
      </trkpt>
      <trkpt lat="50.05146" lon="2.549">
        <ele>135.2</ele>
        <time>2022-02-02T14:10:49Z</time>
      </trkpt>
      <trkpt lat="50.05151" lon="2.54922">
        <ele>134.24</ele>
        <time>2022-02-02T14:11:02Z</time>
      </trkpt>
      <trkpt lat="50.05155" lon="2.54949">
        <ele>133.28</ele>
        <time>2022-02-02T14:11:17Z</time>
      </trkpt>
      <trkpt lat="50.05159" lon="2.54976">
        <ele>132.8</ele>
        <time>2022-02-02T14:11:31Z</time>
      </trkpt>
      <trkpt lat="50.05162" lon="2.55008">
        <ele>131.36</ele>
        <time>2022-02-02T14:11:47Z</time>
      </trkpt>
      <trkpt lat="50.05166" lon="2.55039">
        <ele>131.36</ele>
        <time>2022-02-02T14:12:03Z</time>
      </trkpt>
      <trkpt lat="50.0517" lon="2.55069">
        <ele>131.36</ele>
        <time>2022-02-02T14:12:18Z</time>
      </trkpt>
      <trkpt lat="50.05173" lon="2.55097">
        <ele>130.88</ele>
        <time>2022-02-02T14:12:32Z</time>
      </trkpt>
      <trkpt lat="50.05177" lon="2.55123">
        <ele>129.43</ele>
        <time>2022-02-02T14:12:46Z</time>
      </trkpt>
      <trkpt lat="50.05181" lon="2.55149">
        <ele>127.99</ele>
        <time>2022-02-02T14:13:01Z</time>
      </trkpt>
      <trkpt lat="50.05181" lon="2.55151">
        <ele>127.99</ele>
        <time>2022-02-02T14:13:02Z</time>
      </trkpt>
      <trkpt lat="50.05187" lon="2.55157">
        <ele>128.47</ele>
        <time>2022-02-02T14:13:09Z</time>
      </trkpt>
      <trkpt lat="50.05189" lon="2.55156">
        <ele>128.95</ele>
        <time>2022-02-02T14:13:12Z</time>
      </trkpt>
      <trkpt lat="50.05192" lon="2.55154">
        <ele>128.95</ele>
        <time>2022-02-02T14:13:15Z</time>
      </trkpt>
      <trkpt lat="50.05203" lon="2.55149">
        <ele>128.95</ele>
        <time>2022-02-02T14:13:27Z</time>
      </trkpt>
      <trkpt lat="50.05213" lon="2.55147">
        <ele>128.95</ele>
        <time>2022-02-02T14:13:40Z</time>
      </trkpt>
      <trkpt lat="50.05224" lon="2.55147">
        <ele>129.43</ele>
        <time>2022-02-02T14:13:50Z</time>
      </trkpt>
      <trkpt lat="50.05238" lon="2.55142">
        <ele>129.92</ele>
        <time>2022-02-02T14:14:03Z</time>
      </trkpt>
      <trkpt lat="50.05254" lon="2.55135">
        <ele>130.4</ele>
        <time>2022-02-02T14:14:17Z</time>
      </trkpt>
      <trkpt lat="50.05268" lon="2.55132">
        <ele>129.92</ele>
        <time>2022-02-02T14:14:28Z</time>
      </trkpt>
      <trkpt lat="50.05275" lon="2.55129">
        <ele>128.95</ele>
        <time>2022-02-02T14:14:34Z</time>
      </trkpt>
      <trkpt lat="50.05283" lon="2.55127">
        <ele>129.43</ele>
        <time>2022-02-02T14:14:41Z</time>
      </trkpt>
      <trkpt lat="50.053" lon="2.55122">
        <ele>127.51</ele>
        <time>2022-02-02T14:14:55Z</time>
      </trkpt>
      <trkpt lat="50.05306" lon="2.55119">
        <ele>127.51</ele>
        <time>2022-02-02T14:15:01Z</time>
      </trkpt>
      <trkpt lat="50.05309" lon="2.55119">
        <ele>127.03</ele>
        <time>2022-02-02T14:15:04Z</time>
      </trkpt>
      <trkpt lat="50.05315" lon="2.55116">
        <ele>127.03</ele>
        <time>2022-02-02T14:15:11Z</time>
      </trkpt>
      <trkpt lat="50.05317" lon="2.55114">
        <ele>127.03</ele>
        <time>2022-02-02T14:15:13Z</time>
      </trkpt>
      <trkpt lat="50.05319" lon="2.55114">
        <ele>127.03</ele>
        <time>2022-02-02T14:15:15Z</time>
      </trkpt>
      <trkpt lat="50.05324" lon="2.55111">
        <ele>126.55</ele>
        <time>2022-02-02T14:15:20Z</time>
      </trkpt>
      <trkpt lat="50.0533" lon="2.55109">
        <ele>126.55</ele>
        <time>2022-02-02T14:15:25Z</time>
      </trkpt>
      <trkpt lat="50.05333" lon="2.55109">
        <ele>126.07</ele>
        <time>2022-02-02T14:15:29Z</time>
      </trkpt>
      <trkpt lat="50.05342" lon="2.55113">
        <ele>126.07</ele>
        <time>2022-02-02T14:15:40Z</time>
      </trkpt>
      <trkpt lat="50.05346" lon="2.55106">
        <ele>125.59</ele>
        <time>2022-02-02T14:15:51Z</time>
      </trkpt>
      <trkpt lat="50.05347" lon="2.5509">
        <ele>124.63</ele>
        <time>2022-02-02T14:16:03Z</time>
      </trkpt>
      <trkpt lat="50.05346" lon="2.55078">
        <ele>123.67</ele>
        <time>2022-02-02T14:16:11Z</time>
      </trkpt>
      <trkpt lat="50.05348" lon="2.55062">
        <ele>122.71</ele>
        <time>2022-02-02T14:16:21Z</time>
      </trkpt>
      <trkpt lat="50.0536" lon="2.55048">
        <ele>122.22</ele>
        <time>2022-02-02T14:16:35Z</time>
      </trkpt>
      <trkpt lat="50.05372" lon="2.55038">
        <ele>121.74</ele>
        <time>2022-02-02T14:16:48Z</time>
      </trkpt>
      <trkpt lat="50.05388" lon="2.5503">
        <ele>120.78</ele>
        <time>2022-02-02T14:17:01Z</time>
      </trkpt>
      <trkpt lat="50.05406" lon="2.55022">
        <ele>121.26</ele>
        <time>2022-02-02T14:17:16Z</time>
      </trkpt>
      <trkpt lat="50.05418" lon="2.55016">
        <ele>120.3</ele>
        <time>2022-02-02T14:17:28Z</time>
      </trkpt>
      <trkpt lat="50.05422" lon="2.55013">
        <ele>118.86</ele>
        <time>2022-02-02T14:17:38Z</time>
      </trkpt>
      <trkpt lat="50.05424" lon="2.55009">
        <ele>118.86</ele>
        <time>2022-02-02T14:17:50Z</time>
      </trkpt>
      <trkpt lat="50.05426" lon="2.55007">
        <ele>118.38</ele>
        <time>2022-02-02T14:18:02Z</time>
      </trkpt>
      <trkpt lat="50.05426" lon="2.55005">
        <ele>118.86</ele>
        <time>2022-02-02T14:18:19Z</time>
      </trkpt>
      <trkpt lat="50.05426" lon="2.55004">
        <ele>120.3</ele>
        <time>2022-02-02T14:18:40Z</time>
      </trkpt>
      <trkpt lat="50.05426" lon="2.55004">
        <ele>120.78</ele>
        <time>2022-02-02T14:18:52Z</time>
      </trkpt>
      <trkpt lat="50.05427" lon="2.55003">
        <ele>121.26</ele>
        <time>2022-02-02T14:19:13Z</time>
      </trkpt>
      <trkpt lat="50.05428" lon="2.55002">
        <ele>121.26</ele>
        <time>2022-02-02T14:19:30Z</time>
      </trkpt>
      <trkpt lat="50.05428" lon="2.55">
        <ele>121.26</ele>
        <time>2022-02-02T14:19:52Z</time>
      </trkpt>
      <trkpt lat="50.05427" lon="2.55001">
        <ele>120.78</ele>
        <time>2022-02-02T14:20:11Z</time>
      </trkpt>
      <trkpt lat="50.05427" lon="2.55001">
        <ele>119.82</ele>
        <time>2022-02-02T14:20:26Z</time>
      </trkpt>
      <trkpt lat="50.05428" lon="2.55002">
        <ele>118.86</ele>
        <time>2022-02-02T14:20:43Z</time>
      </trkpt>
      <trkpt lat="50.05427" lon="2.55003">
        <ele>118.86</ele>
        <time>2022-02-02T14:21:01Z</time>
      </trkpt>
      <trkpt lat="50.05429" lon="2.55002">
        <ele>118.86</ele>
        <time>2022-02-02T14:21:17Z</time>
      </trkpt>
      <trkpt lat="50.05439" lon="2.55001">
        <ele>117.9</ele>
        <time>2022-02-02T14:21:28Z</time>
      </trkpt>
      <trkpt lat="50.05451" lon="2.55002">
        <ele>117.9</ele>
        <time>2022-02-02T14:21:39Z</time>
      </trkpt>
      <trkpt lat="50.05458" lon="2.55003">
        <ele>116.94</ele>
        <time>2022-02-02T14:21:45Z</time>
      </trkpt>
      <trkpt lat="50.05472" lon="2.55004">
        <ele>115.98</ele>
        <time>2022-02-02T14:21:58Z</time>
      </trkpt>
      <trkpt lat="50.05484" lon="2.55006">
        <ele>115.98</ele>
        <time>2022-02-02T14:22:10Z</time>
      </trkpt>
      <trkpt lat="50.05499" lon="2.55009">
        <ele>115.5</ele>
        <time>2022-02-02T14:22:24Z</time>
      </trkpt>
      <trkpt lat="50.05513" lon="2.55014">
        <ele>115.98</ele>
        <time>2022-02-02T14:22:37Z</time>
      </trkpt>
      <trkpt lat="50.05522" lon="2.55017">
        <ele>114.53</ele>
        <time>2022-02-02T14:22:45Z</time>
      </trkpt>
      <trkpt lat="50.05535" lon="2.5502">
        <ele>114.53</ele>
        <time>2022-02-02T14:22:56Z</time>
      </trkpt>
      <trkpt lat="50.05551" lon="2.55024">
        <ele>115.01</ele>
        <time>2022-02-02T14:23:10Z</time>
      </trkpt>
      <trkpt lat="50.05563" lon="2.55026">
        <ele>115.5</ele>
        <time>2022-02-02T14:23:21Z</time>
      </trkpt>
      <trkpt lat="50.05577" lon="2.55028">
        <ele>115.5</ele>
        <time>2022-02-02T14:23:34Z</time>
      </trkpt>
      <trkpt lat="50.05594" lon="2.5503">
        <ele>115.01</ele>
        <time>2022-02-02T14:23:47Z</time>
      </trkpt>
      <trkpt lat="50.05609" lon="2.55031">
        <ele>115.5</ele>
        <time>2022-02-02T14:24:00Z</time>
      </trkpt>
      <trkpt lat="50.05626" lon="2.5503">
        <ele>116.94</ele>
        <time>2022-02-02T14:24:13Z</time>
      </trkpt>
      <trkpt lat="50.0564" lon="2.55028">
        <ele>116.94</ele>
        <time>2022-02-02T14:24:25Z</time>
      </trkpt>
      <trkpt lat="50.05657" lon="2.55026">
        <ele>118.86</ele>
        <time>2022-02-02T14:24:41Z</time>
      </trkpt>
      <trkpt lat="50.05667" lon="2.55025">
        <ele>120.3</ele>
        <time>2022-02-02T14:24:51Z</time>
      </trkpt>
      <trkpt lat="50.05679" lon="2.55023">
        <ele>121.26</ele>
        <time>2022-02-02T14:25:03Z</time>
      </trkpt>
      <trkpt lat="50.05694" lon="2.55025">
        <ele>121.74</ele>
        <time>2022-02-02T14:25:16Z</time>
      </trkpt>
      <trkpt lat="50.05694" lon="2.55026">
        <ele>121.74</ele>
        <time>2022-02-02T14:25:17Z</time>
      </trkpt>
      <trkpt lat="50.05705" lon="2.55036">
        <ele>121.74</ele>
        <time>2022-02-02T14:25:30Z</time>
      </trkpt>
      <trkpt lat="50.05712" lon="2.55038">
        <ele>124.15</ele>
        <time>2022-02-02T14:25:41Z</time>
      </trkpt>
      <trkpt lat="50.05716" lon="2.55029">
        <ele>124.63</ele>
        <time>2022-02-02T14:25:47Z</time>
      </trkpt>
      <trkpt lat="50.05716" lon="2.55">
        <ele>124.15</ele>
        <time>2022-02-02T14:26:02Z</time>
      </trkpt>
      <trkpt lat="50.05717" lon="2.54969">
        <ele>124.63</ele>
        <time>2022-02-02T14:26:17Z</time>
      </trkpt>
      <trkpt lat="50.05717" lon="2.54942">
        <ele>124.15</ele>
        <time>2022-02-02T14:26:31Z</time>
      </trkpt>
      <trkpt lat="50.05717" lon="2.54908">
        <ele>123.19</ele>
        <time>2022-02-02T14:26:48Z</time>
      </trkpt>
      <trkpt lat="50.05719" lon="2.54878">
        <ele>121.74</ele>
        <time>2022-02-02T14:27:02Z</time>
      </trkpt>
      <trkpt lat="50.05719" lon="2.5485">
        <ele>123.19</ele>
        <time>2022-02-02T14:27:16Z</time>
      </trkpt>
      <trkpt lat="50.05718" lon="2.54821">
        <ele>124.63</ele>
        <time>2022-02-02T14:27:31Z</time>
      </trkpt>
      <trkpt lat="50.05717" lon="2.54789">
        <ele>126.07</ele>
        <time>2022-02-02T14:27:47Z</time>
      </trkpt>
      <trkpt lat="50.05715" lon="2.54765">
        <ele>127.03</ele>
        <time>2022-02-02T14:28:00Z</time>
      </trkpt>
      <trkpt lat="50.05713" lon="2.54737">
        <ele>128.95</ele>
        <time>2022-02-02T14:28:14Z</time>
      </trkpt>
      <trkpt lat="50.05712" lon="2.54704">
        <ele>129.92</ele>
        <time>2022-02-02T14:28:30Z</time>
      </trkpt>
      <trkpt lat="50.05712" lon="2.54672">
        <ele>133.76</ele>
        <time>2022-02-02T14:28:46Z</time>
      </trkpt>
      <trkpt lat="50.05713" lon="2.54638">
        <ele>134.24</ele>
        <time>2022-02-02T14:29:02Z</time>
      </trkpt>
      <trkpt lat="50.05717" lon="2.54604">
        <ele>133.76</ele>
        <time>2022-02-02T14:29:19Z</time>
      </trkpt>
      <trkpt lat="50.05722" lon="2.54572">
        <ele>134.72</ele>
        <time>2022-02-02T14:29:35Z</time>
      </trkpt>
      <trkpt lat="50.05727" lon="2.54544">
        <ele>135.2</ele>
        <time>2022-02-02T14:29:49Z</time>
      </trkpt>
      <trkpt lat="50.05734" lon="2.54509">
        <ele>135.2</ele>
        <time>2022-02-02T14:30:07Z</time>
      </trkpt>
      <trkpt lat="50.05741" lon="2.54476">
        <ele>135.2</ele>
        <time>2022-02-02T14:30:24Z</time>
      </trkpt>
      <trkpt lat="50.05748" lon="2.54441">
        <ele>136.16</ele>
        <time>2022-02-02T14:30:42Z</time>
      </trkpt>
      <trkpt lat="50.05754" lon="2.54409">
        <ele>136.64</ele>
        <time>2022-02-02T14:30:59Z</time>
      </trkpt>
      <trkpt lat="50.05757" lon="2.5438">
        <ele>135.68</ele>
        <time>2022-02-02T14:31:14Z</time>
      </trkpt>
      <trkpt lat="50.05757" lon="2.5435">
        <ele>135.68</ele>
        <time>2022-02-02T14:31:30Z</time>
      </trkpt>
      <trkpt lat="50.05751" lon="2.54317">
        <ele>136.16</ele>
        <time>2022-02-02T14:31:47Z</time>
      </trkpt>
      <trkpt lat="50.05743" lon="2.54291">
        <ele>136.64</ele>
        <time>2022-02-02T14:32:02Z</time>
      </trkpt>
      <trkpt lat="50.05732" lon="2.54262">
        <ele>136.64</ele>
        <time>2022-02-02T14:32:18Z</time>
      </trkpt>
      <trkpt lat="50.05721" lon="2.54237">
        <ele>136.64</ele>
        <time>2022-02-02T14:32:33Z</time>
      </trkpt>
      <trkpt lat="50.05717" lon="2.54225">
        <ele>136.16</ele>
        <time>2022-02-02T14:32:40Z</time>
      </trkpt>
      <trkpt lat="50.05727" lon="2.5422">
        <ele>138.57</ele>
        <time>2022-02-02T14:32:51Z</time>
      </trkpt>
      <trkpt lat="50.05742" lon="2.54231">
        <ele>139.53</ele>
        <time>2022-02-02T14:33:05Z</time>
      </trkpt>
      <trkpt lat="50.05759" lon="2.54242">
        <ele>140.01</ele>
        <time>2022-02-02T14:33:20Z</time>
      </trkpt>
      <trkpt lat="50.05772" lon="2.54251">
        <ele>141.45</ele>
        <time>2022-02-02T14:33:33Z</time>
      </trkpt>
      <trkpt lat="50.05785" lon="2.54259">
        <ele>141.93</ele>
        <time>2022-02-02T14:33:45Z</time>
      </trkpt>
      <trkpt lat="50.05798" lon="2.54267">
        <ele>142.41</ele>
        <time>2022-02-02T14:33:56Z</time>
      </trkpt>
      <trkpt lat="50.05813" lon="2.54277">
        <ele>141.93</ele>
        <time>2022-02-02T14:34:10Z</time>
      </trkpt>
      <trkpt lat="50.0583" lon="2.54288">
        <ele>141.93</ele>
        <time>2022-02-02T14:34:27Z</time>
      </trkpt>
      <trkpt lat="50.05843" lon="2.54295">
        <ele>143.37</ele>
        <time>2022-02-02T14:34:38Z</time>
      </trkpt>
      <trkpt lat="50.05858" lon="2.54304">
        <ele>143.85</ele>
        <time>2022-02-02T14:34:51Z</time>
      </trkpt>
      <trkpt lat="50.05872" lon="2.54314">
        <ele>143.85</ele>
        <time>2022-02-02T14:35:03Z</time>
      </trkpt>
      <trkpt lat="50.05888" lon="2.54323">
        <ele>144.34</ele>
        <time>2022-02-02T14:35:17Z</time>
      </trkpt>
      <trkpt lat="50.05903" lon="2.54333">
        <ele>145.3</ele>
        <time>2022-02-02T14:35:31Z</time>
      </trkpt>
      <trkpt lat="50.05919" lon="2.54346">
        <ele>144.34</ele>
        <time>2022-02-02T14:35:45Z</time>
      </trkpt>
      <trkpt lat="50.05935" lon="2.54357">
        <ele>143.37</ele>
        <time>2022-02-02T14:35:58Z</time>
      </trkpt>
      <trkpt lat="50.05952" lon="2.54368">
        <ele>142.89</ele>
        <time>2022-02-02T14:36:12Z</time>
      </trkpt>
      <trkpt lat="50.05968" lon="2.54379">
        <ele>142.41</ele>
        <time>2022-02-02T14:36:25Z</time>
      </trkpt>
      <trkpt lat="50.05986" lon="2.54391">
        <ele>142.41</ele>
        <time>2022-02-02T14:36:40Z</time>
      </trkpt>
      <trkpt lat="50.06" lon="2.54399">
        <ele>143.85</ele>
        <time>2022-02-02T14:36:53Z</time>
      </trkpt>
      <trkpt lat="50.06013" lon="2.54407">
        <ele>143.85</ele>
        <time>2022-02-02T14:37:05Z</time>
      </trkpt>
      <trkpt lat="50.06028" lon="2.54416">
        <ele>143.37</ele>
        <time>2022-02-02T14:37:18Z</time>
      </trkpt>
      <trkpt lat="50.06043" lon="2.54426">
        <ele>143.37</ele>
        <time>2022-02-02T14:37:31Z</time>
      </trkpt>
      <trkpt lat="50.06058" lon="2.54435">
        <ele>142.41</ele>
        <time>2022-02-02T14:37:44Z</time>
      </trkpt>
      <trkpt lat="50.06073" lon="2.54444">
        <ele>141.45</ele>
        <time>2022-02-02T14:37:56Z</time>
      </trkpt>
      <trkpt lat="50.06088" lon="2.54454">
        <ele>140.49</ele>
        <time>2022-02-02T14:38:09Z</time>
      </trkpt>
      <trkpt lat="50.06103" lon="2.54464">
        <ele>139.05</ele>
        <time>2022-02-02T14:38:22Z</time>
      </trkpt>
      <trkpt lat="50.06118" lon="2.54474">
        <ele>137.13</ele>
        <time>2022-02-02T14:38:34Z</time>
      </trkpt>
      <trkpt lat="50.06135" lon="2.54485">
        <ele>137.13</ele>
        <time>2022-02-02T14:38:48Z</time>
      </trkpt>
      <trkpt lat="50.06151" lon="2.54496">
        <ele>138.57</ele>
        <time>2022-02-02T14:39:02Z</time>
      </trkpt>
      <trkpt lat="50.06166" lon="2.54506">
        <ele>139.05</ele>
        <time>2022-02-02T14:39:15Z</time>
      </trkpt>
      <trkpt lat="50.06179" lon="2.54513">
        <ele>139.05</ele>
        <time>2022-02-02T14:39:27Z</time>
      </trkpt>
      <trkpt lat="50.06198" lon="2.54524">
        <ele>140.49</ele>
        <time>2022-02-02T14:39:42Z</time>
      </trkpt>
      <trkpt lat="50.06216" lon="2.54536">
        <ele>139.05</ele>
        <time>2022-02-02T14:39:57Z</time>
      </trkpt>
      <trkpt lat="50.06234" lon="2.54548">
        <ele>138.57</ele>
        <time>2022-02-02T14:40:13Z</time>
      </trkpt>
      <trkpt lat="50.06251" lon="2.54558">
        <ele>138.57</ele>
        <time>2022-02-02T14:40:27Z</time>
      </trkpt>
      <trkpt lat="50.06267" lon="2.54569">
        <ele>138.57</ele>
        <time>2022-02-02T14:40:41Z</time>
      </trkpt>
      <trkpt lat="50.06284" lon="2.54579">
        <ele>138.57</ele>
        <time>2022-02-02T14:40:55Z</time>
      </trkpt>
      <trkpt lat="50.063" lon="2.5459">
        <ele>137.61</ele>
        <time>2022-02-02T14:41:10Z</time>
      </trkpt>
      <trkpt lat="50.06313" lon="2.54599">
        <ele>137.13</ele>
        <time>2022-02-02T14:41:22Z</time>
      </trkpt>
      <trkpt lat="50.06329" lon="2.54609">
        <ele>137.13</ele>
        <time>2022-02-02T14:41:36Z</time>
      </trkpt>
      <trkpt lat="50.06344" lon="2.5462">
        <ele>137.61</ele>
        <time>2022-02-02T14:41:50Z</time>
      </trkpt>
      <trkpt lat="50.06362" lon="2.54632">
        <ele>138.09</ele>
        <time>2022-02-02T14:42:05Z</time>
      </trkpt>
      <trkpt lat="50.06382" lon="2.54644">
        <ele>138.09</ele>
        <time>2022-02-02T14:42:20Z</time>
      </trkpt>
      <trkpt lat="50.06398" lon="2.54653">
        <ele>138.09</ele>
        <time>2022-02-02T14:42:33Z</time>
      </trkpt>
      <trkpt lat="50.06417" lon="2.54665">
        <ele>137.13</ele>
        <time>2022-02-02T14:42:49Z</time>
      </trkpt>
      <trkpt lat="50.06435" lon="2.54676">
        <ele>136.16</ele>
        <time>2022-02-02T14:43:04Z</time>
      </trkpt>
      <trkpt lat="50.06452" lon="2.54686">
        <ele>135.2</ele>
        <time>2022-02-02T14:43:18Z</time>
      </trkpt>
      <trkpt lat="50.0647" lon="2.54697">
        <ele>134.72</ele>
        <time>2022-02-02T14:43:33Z</time>
      </trkpt>
      <trkpt lat="50.06483" lon="2.54707">
        <ele>132.8</ele>
        <time>2022-02-02T14:43:46Z</time>
      </trkpt>
      <trkpt lat="50.06496" lon="2.54715">
        <ele>132.32</ele>
        <time>2022-02-02T14:44:00Z</time>
      </trkpt>
      <trkpt lat="50.06501" lon="2.5472">
        <ele>131.36</ele>
        <time>2022-02-02T14:44:11Z</time>
      </trkpt>
      <trkpt lat="50.06503" lon="2.54721">
        <ele>132.32</ele>
        <time>2022-02-02T14:44:25Z</time>
      </trkpt>
      <trkpt lat="50.06503" lon="2.54721">
        <ele>132.8</ele>
        <time>2022-02-02T14:44:41Z</time>
      </trkpt>
      <trkpt lat="50.06503" lon="2.54722">
        <ele>133.28</ele>
        <time>2022-02-02T14:44:52Z</time>
      </trkpt>
      <trkpt lat="50.06504" lon="2.54723">
        <ele>133.76</ele>
        <time>2022-02-02T14:45:07Z</time>
      </trkpt>
      <trkpt lat="50.06504" lon="2.54723">
        <ele>133.28</ele>
        <time>2022-02-02T14:45:26Z</time>
      </trkpt>
      <trkpt lat="50.06503" lon="2.54723">
        <ele>132.8</ele>
        <time>2022-02-02T14:45:40Z</time>
      </trkpt>
      <trkpt lat="50.06504" lon="2.54722">
        <ele>132.32</ele>
        <time>2022-02-02T14:46:01Z</time>
      </trkpt>
      <trkpt lat="50.06506" lon="2.54722">
        <ele>132.8</ele>
        <time>2022-02-02T14:46:25Z</time>
      </trkpt>
      <trkpt lat="50.06506" lon="2.54723">
        <ele>132.8</ele>
        <time>2022-02-02T14:46:41Z</time>
      </trkpt>
      <trkpt lat="50.06506" lon="2.54723">
        <ele>133.28</ele>
        <time>2022-02-02T14:46:52Z</time>
      </trkpt>
      <trkpt lat="50.06507" lon="2.54724">
        <ele>133.76</ele>
        <time>2022-02-02T14:47:15Z</time>
      </trkpt>
      <trkpt lat="50.06507" lon="2.54725">
        <ele>133.76</ele>
        <time>2022-02-02T14:47:38Z</time>
      </trkpt>
      <trkpt lat="50.06508" lon="2.54725">
        <ele>134.24</ele>
        <time>2022-02-02T14:47:58Z</time>
      </trkpt>
      <trkpt lat="50.06507" lon="2.54724">
        <ele>134.24</ele>
        <time>2022-02-02T14:48:12Z</time>
      </trkpt>
      <trkpt lat="50.06512" lon="2.54717">
        <ele>134.24</ele>
        <time>2022-02-02T14:48:21Z</time>
      </trkpt>
      <trkpt lat="50.06522" lon="2.54697">
        <ele>134.72</ele>
        <time>2022-02-02T14:48:34Z</time>
      </trkpt>
      <trkpt lat="50.06533" lon="2.54675">
        <ele>133.76</ele>
        <time>2022-02-02T14:48:48Z</time>
      </trkpt>
      <trkpt lat="50.06548" lon="2.54648">
        <ele>132.32</ele>
        <time>2022-02-02T14:49:06Z</time>
      </trkpt>
      <trkpt lat="50.06561" lon="2.54625">
        <ele>131.36</ele>
        <time>2022-02-02T14:49:21Z</time>
      </trkpt>
      <trkpt lat="50.06575" lon="2.54601">
        <ele>131.36</ele>
        <time>2022-02-02T14:49:36Z</time>
      </trkpt>
      <trkpt lat="50.06586" lon="2.54579">
        <ele>130.4</ele>
        <time>2022-02-02T14:49:50Z</time>
      </trkpt>
      <trkpt lat="50.066" lon="2.54556">
        <ele>130.4</ele>
        <time>2022-02-02T14:50:06Z</time>
      </trkpt>
      <trkpt lat="50.06612" lon="2.54531">
        <ele>129.92</ele>
        <time>2022-02-02T14:50:22Z</time>
      </trkpt>
      <trkpt lat="50.06625" lon="2.54508">
        <ele>130.88</ele>
        <time>2022-02-02T14:50:37Z</time>
      </trkpt>
      <trkpt lat="50.06636" lon="2.54488">
        <ele>130.88</ele>
        <time>2022-02-02T14:50:50Z</time>
      </trkpt>
      <trkpt lat="50.06646" lon="2.5447">
        <ele>129.43</ele>
        <time>2022-02-02T14:51:03Z</time>
      </trkpt>
      <trkpt lat="50.06658" lon="2.54452">
        <ele>129.92</ele>
        <time>2022-02-02T14:51:17Z</time>
      </trkpt>
      <trkpt lat="50.06669" lon="2.54435">
        <ele>129.92</ele>
        <time>2022-02-02T14:51:29Z</time>
      </trkpt>
      <trkpt lat="50.06669" lon="2.54415">
        <ele>131.36</ele>
        <time>2022-02-02T14:51:40Z</time>
      </trkpt>
      <trkpt lat="50.06656" lon="2.54394">
        <ele>132.8</ele>
        <time>2022-02-02T14:51:56Z</time>
      </trkpt>
      <trkpt lat="50.06644" lon="2.54379">
        <ele>132.8</ele>
        <time>2022-02-02T14:52:08Z</time>
      </trkpt>
      <trkpt lat="50.06632" lon="2.54365">
        <ele>132.8</ele>
        <time>2022-02-02T14:52:19Z</time>
      </trkpt>
      <trkpt lat="50.06616" lon="2.54347">
        <ele>133.28</ele>
        <time>2022-02-02T14:52:34Z</time>
      </trkpt>
      <trkpt lat="50.06602" lon="2.54332">
        <ele>133.76</ele>
        <time>2022-02-02T14:52:47Z</time>
      </trkpt>
      <trkpt lat="50.06585" lon="2.54316">
        <ele>133.76</ele>
        <time>2022-02-02T14:53:02Z</time>
      </trkpt>
      <trkpt lat="50.06572" lon="2.54303">
        <ele>133.76</ele>
        <time>2022-02-02T14:53:15Z</time>
      </trkpt>
      <trkpt lat="50.06557" lon="2.54287">
        <ele>134.72</ele>
        <time>2022-02-02T14:53:29Z</time>
      </trkpt>
      <trkpt lat="50.06544" lon="2.54273">
        <ele>134.72</ele>
        <time>2022-02-02T14:53:43Z</time>
      </trkpt>
      <trkpt lat="50.06529" lon="2.54259">
        <ele>135.2</ele>
        <time>2022-02-02T14:53:57Z</time>
      </trkpt>
      <trkpt lat="50.06517" lon="2.54246">
        <ele>135.68</ele>
        <time>2022-02-02T14:54:09Z</time>
      </trkpt>
      <trkpt lat="50.06501" lon="2.5423">
        <ele>137.13</ele>
        <time>2022-02-02T14:54:24Z</time>
      </trkpt>
      <trkpt lat="50.06484" lon="2.54217">
        <ele>137.13</ele>
        <time>2022-02-02T14:54:39Z</time>
      </trkpt>
      <trkpt lat="50.06467" lon="2.54207">
        <ele>135.2</ele>
        <time>2022-02-02T14:54:53Z</time>
      </trkpt>
      <trkpt lat="50.06449" lon="2.54196">
        <ele>134.72</ele>
        <time>2022-02-02T14:55:08Z</time>
      </trkpt>
      <trkpt lat="50.06429" lon="2.54185">
        <ele>133.76</ele>
        <time>2022-02-02T14:55:24Z</time>
      </trkpt>
      <trkpt lat="50.06413" lon="2.54174">
        <ele>133.76</ele>
        <time>2022-02-02T14:55:38Z</time>
      </trkpt>
      <trkpt lat="50.06397" lon="2.54167">
        <ele>133.28</ele>
        <time>2022-02-02T14:55:51Z</time>
      </trkpt>
      <trkpt lat="50.0638" lon="2.54156">
        <ele>131.84</ele>
        <time>2022-02-02T14:56:05Z</time>
      </trkpt>
      <trkpt lat="50.06363" lon="2.54146">
        <ele>131.84</ele>
        <time>2022-02-02T14:56:19Z</time>
      </trkpt>
      <trkpt lat="50.06347" lon="2.54136">
        <ele>130.88</ele>
        <time>2022-02-02T14:56:32Z</time>
      </trkpt>
      <trkpt lat="50.06329" lon="2.54126">
        <ele>130.4</ele>
        <time>2022-02-02T14:56:46Z</time>
      </trkpt>
      <trkpt lat="50.06312" lon="2.54116">
        <ele>129.92</ele>
        <time>2022-02-02T14:57:00Z</time>
      </trkpt>
      <trkpt lat="50.06295" lon="2.54106">
        <ele>129.43</ele>
        <time>2022-02-02T14:57:15Z</time>
      </trkpt>
      <trkpt lat="50.06281" lon="2.54098">
        <ele>128.95</ele>
        <time>2022-02-02T14:57:27Z</time>
      </trkpt>
      <trkpt lat="50.06267" lon="2.54088">
        <ele>129.43</ele>
        <time>2022-02-02T14:57:39Z</time>
      </trkpt>
      <trkpt lat="50.06249" lon="2.54075">
        <ele>128.95</ele>
        <time>2022-02-02T14:57:54Z</time>
      </trkpt>
      <trkpt lat="50.06233" lon="2.54065">
        <ele>129.43</ele>
        <time>2022-02-02T14:58:08Z</time>
      </trkpt>
      <trkpt lat="50.0622" lon="2.54053">
        <ele>129.43</ele>
        <time>2022-02-02T14:58:21Z</time>
      </trkpt>
      <trkpt lat="50.06217" lon="2.54031">
        <ele>130.4</ele>
        <time>2022-02-02T14:58:33Z</time>
      </trkpt>
      <trkpt lat="50.06216" lon="2.54001">
        <ele>130.4</ele>
        <time>2022-02-02T14:58:48Z</time>
      </trkpt>
      <trkpt lat="50.06216" lon="2.53969">
        <ele>130.4</ele>
        <time>2022-02-02T14:59:04Z</time>
      </trkpt>
      <trkpt lat="50.06216" lon="2.53944">
        <ele>131.84</ele>
        <time>2022-02-02T14:59:16Z</time>
      </trkpt>
      <trkpt lat="50.06216" lon="2.53912">
        <ele>131.84</ele>
        <time>2022-02-02T14:59:32Z</time>
      </trkpt>
      <trkpt lat="50.06216" lon="2.53874">
        <ele>131.36</ele>
        <time>2022-02-02T14:59:50Z</time>
      </trkpt>
      <trkpt lat="50.06217" lon="2.53837">
        <ele>129.92</ele>
        <time>2022-02-02T15:00:08Z</time>
      </trkpt>
      <trkpt lat="50.06218" lon="2.53807">
        <ele>127.99</ele>
        <time>2022-02-02T15:00:23Z</time>
      </trkpt>
      <trkpt lat="50.06217" lon="2.53779">
        <ele>127.03</ele>
        <time>2022-02-02T15:00:36Z</time>
      </trkpt>
      <trkpt lat="50.06217" lon="2.53752">
        <ele>126.55</ele>
        <time>2022-02-02T15:00:50Z</time>
      </trkpt>
      <trkpt lat="50.06216" lon="2.53721">
        <ele>127.99</ele>
        <time>2022-02-02T15:01:05Z</time>
      </trkpt>
      <trkpt lat="50.06217" lon="2.53687">
        <ele>127.03</ele>
        <time>2022-02-02T15:01:21Z</time>
      </trkpt>
      <trkpt lat="50.06218" lon="2.53665">
        <ele>126.55</ele>
        <time>2022-02-02T15:01:33Z</time>
      </trkpt>
      <trkpt lat="50.06218" lon="2.5364">
        <ele>124.15</ele>
        <time>2022-02-02T15:01:46Z</time>
      </trkpt>
      <trkpt lat="50.06219" lon="2.53633">
        <ele>124.63</ele>
        <time>2022-02-02T15:01:56Z</time>
      </trkpt>
      <trkpt lat="50.06219" lon="2.53631">
        <ele>126.07</ele>
        <time>2022-02-02T15:02:07Z</time>
      </trkpt>
      <trkpt lat="50.06219" lon="2.5363">
        <ele>127.03</ele>
        <time>2022-02-02T15:02:24Z</time>
      </trkpt>
      <trkpt lat="50.06219" lon="2.53629">
        <ele>127.51</ele>
        <time>2022-02-02T15:02:37Z</time>
      </trkpt>
      <trkpt lat="50.06219" lon="2.53628">
        <ele>127.99</ele>
        <time>2022-02-02T15:02:55Z</time>
      </trkpt>
      <trkpt lat="50.06219" lon="2.53628">
        <ele>127.51</ele>
        <time>2022-02-02T15:03:11Z</time>
      </trkpt>
      <trkpt lat="50.06219" lon="2.53628">
        <ele>127.51</ele>
        <time>2022-02-02T15:03:26Z</time>
      </trkpt>
      <trkpt lat="50.06219" lon="2.53627">
        <ele>127.51</ele>
        <time>2022-02-02T15:03:35Z</time>
      </trkpt>
      <trkpt lat="50.06219" lon="2.53627">
        <ele>127.03</ele>
        <time>2022-02-02T15:03:50Z</time>
      </trkpt>
      <trkpt lat="50.0622" lon="2.53626">
        <ele>127.03</ele>
        <time>2022-02-02T15:04:03Z</time>
      </trkpt>
      <trkpt lat="50.0622" lon="2.53626">
        <ele>127.03</ele>
        <time>2022-02-02T15:04:10Z</time>
      </trkpt>
      <trkpt lat="50.06233" lon="2.53619">
        <ele>126.55</ele>
        <time>2022-02-02T15:04:24Z</time>
      </trkpt>
      <trkpt lat="50.06249" lon="2.53615">
        <ele>125.11</ele>
        <time>2022-02-02T15:04:38Z</time>
      </trkpt>
      <trkpt lat="50.06255" lon="2.5361">
        <ele>125.11</ele>
        <time>2022-02-02T15:04:44Z</time>
      </trkpt>
      <trkpt lat="50.06262" lon="2.53584">
        <ele>123.67</ele>
        <time>2022-02-02T15:04:58Z</time>
      </trkpt>
      <trkpt lat="50.06265" lon="2.53556">
        <ele>124.63</ele>
        <time>2022-02-02T15:05:13Z</time>
      </trkpt>
      <trkpt lat="50.06267" lon="2.53528">
        <ele>123.67</ele>
        <time>2022-02-02T15:05:27Z</time>
      </trkpt>
      <trkpt lat="50.06269" lon="2.53499">
        <ele>123.67</ele>
        <time>2022-02-02T15:05:41Z</time>
      </trkpt>
      <trkpt lat="50.06271" lon="2.53472">
        <ele>125.59</ele>
        <time>2022-02-02T15:05:54Z</time>
      </trkpt>
      <trkpt lat="50.06273" lon="2.53439">
        <ele>124.63</ele>
        <time>2022-02-02T15:06:10Z</time>
      </trkpt>
      <trkpt lat="50.06276" lon="2.53414">
        <ele>124.63</ele>
        <time>2022-02-02T15:06:23Z</time>
      </trkpt>
      <trkpt lat="50.06278" lon="2.53378">
        <ele>123.67</ele>
        <time>2022-02-02T15:06:41Z</time>
      </trkpt>
      <trkpt lat="50.0628" lon="2.53347">
        <ele>124.63</ele>
        <time>2022-02-02T15:06:56Z</time>
      </trkpt>
      <trkpt lat="50.06282" lon="2.53317">
        <ele>124.63</ele>
        <time>2022-02-02T15:07:11Z</time>
      </trkpt>
      <trkpt lat="50.06288" lon="2.53288">
        <ele>125.59</ele>
        <time>2022-02-02T15:07:26Z</time>
      </trkpt>
      <trkpt lat="50.06302" lon="2.53282">
        <ele>124.63</ele>
        <time>2022-02-02T15:07:38Z</time>
      </trkpt>
      <trkpt lat="50.06325" lon="2.53284">
        <ele>124.15</ele>
        <time>2022-02-02T15:07:55Z</time>
      </trkpt>
      <trkpt lat="50.06343" lon="2.53284">
        <ele>124.15</ele>
        <time>2022-02-02T15:08:09Z</time>
      </trkpt>
      <trkpt lat="50.06362" lon="2.53286">
        <ele>123.67</ele>
        <time>2022-02-02T15:08:24Z</time>
      </trkpt>
      <trkpt lat="50.06387" lon="2.53286">
        <ele>122.22</ele>
        <time>2022-02-02T15:08:42Z</time>
      </trkpt>
      <trkpt lat="50.06411" lon="2.53286">
        <ele>121.74</ele>
        <time>2022-02-02T15:09:00Z</time>
      </trkpt>
      <trkpt lat="50.06427" lon="2.53285">
        <ele>122.71</ele>
        <time>2022-02-02T15:09:12Z</time>
      </trkpt>
      <trkpt lat="50.06448" lon="2.53283">
        <ele>122.71</ele>
        <time>2022-02-02T15:09:28Z</time>
      </trkpt>
      <trkpt lat="50.06467" lon="2.53283">
        <ele>120.3</ele>
        <time>2022-02-02T15:09:43Z</time>
      </trkpt>
      <trkpt lat="50.06494" lon="2.53282">
        <ele>120.3</ele>
        <time>2022-02-02T15:10:02Z</time>
      </trkpt>
      <trkpt lat="50.06518" lon="2.53284">
        <ele>119.34</ele>
        <time>2022-02-02T15:10:20Z</time>
      </trkpt>
      <trkpt lat="50.06539" lon="2.53287">
        <ele>118.38</ele>
        <time>2022-02-02T15:10:36Z</time>
      </trkpt>
      <trkpt lat="50.06559" lon="2.53288">
        <ele>120.78</ele>
        <time>2022-02-02T15:10:51Z</time>
      </trkpt>
      <trkpt lat="50.06577" lon="2.53291">
        <ele>121.74</ele>
        <time>2022-02-02T15:11:06Z</time>
      </trkpt>
      <trkpt lat="50.06592" lon="2.53293">
        <ele>121.74</ele>
        <time>2022-02-02T15:11:18Z</time>
      </trkpt>
      <trkpt lat="50.06613" lon="2.53299">
        <ele>120.78</ele>
        <time>2022-02-02T15:11:34Z</time>
      </trkpt>
      <trkpt lat="50.06633" lon="2.53306">
        <ele>118.86</ele>
        <time>2022-02-02T15:11:49Z</time>
      </trkpt>
      <trkpt lat="50.06654" lon="2.53315">
        <ele>116.94</ele>
        <time>2022-02-02T15:12:06Z</time>
      </trkpt>
      <trkpt lat="50.06676" lon="2.53322">
        <ele>116.46</ele>
        <time>2022-02-02T15:12:23Z</time>
      </trkpt>
      <trkpt lat="50.06695" lon="2.53327">
        <ele>116.94</ele>
        <time>2022-02-02T15:12:38Z</time>
      </trkpt>
      <trkpt lat="50.06714" lon="2.53332">
        <ele>116.46</ele>
        <time>2022-02-02T15:12:52Z</time>
      </trkpt>
      <trkpt lat="50.06739" lon="2.53335">
        <ele>115.98</ele>
        <time>2022-02-02T15:13:10Z</time>
      </trkpt>
      <trkpt lat="50.06761" lon="2.53336">
        <ele>117.42</ele>
        <time>2022-02-02T15:13:26Z</time>
      </trkpt>
      <trkpt lat="50.06785" lon="2.53334">
        <ele>118.38</ele>
        <time>2022-02-02T15:13:44Z</time>
      </trkpt>
      <trkpt lat="50.06805" lon="2.53334">
        <ele>119.34</ele>
        <time>2022-02-02T15:13:59Z</time>
      </trkpt>
      <trkpt lat="50.06826" lon="2.53332">
        <ele>120.78</ele>
        <time>2022-02-02T15:14:14Z</time>
      </trkpt>
      <trkpt lat="50.06846" lon="2.53331">
        <ele>121.26</ele>
        <time>2022-02-02T15:14:30Z</time>
      </trkpt>
      <trkpt lat="50.06866" lon="2.53329">
        <ele>120.78</ele>
        <time>2022-02-02T15:14:45Z</time>
      </trkpt>
      <trkpt lat="50.06885" lon="2.53326">
        <ele>120.78</ele>
        <time>2022-02-02T15:15:00Z</time>
      </trkpt>
      <trkpt lat="50.06904" lon="2.53322">
        <ele>121.74</ele>
        <time>2022-02-02T15:15:15Z</time>
      </trkpt>
      <trkpt lat="50.06923" lon="2.53317">
        <ele>122.71</ele>
        <time>2022-02-02T15:15:30Z</time>
      </trkpt>
      <trkpt lat="50.06941" lon="2.53313">
        <ele>123.67</ele>
        <time>2022-02-02T15:15:44Z</time>
      </trkpt>
      <trkpt lat="50.06961" lon="2.53308">
        <ele>123.19</ele>
        <time>2022-02-02T15:15:59Z</time>
      </trkpt>
      <trkpt lat="50.06974" lon="2.53303">
        <ele>122.71</ele>
        <time>2022-02-02T15:16:11Z</time>
      </trkpt>
      <trkpt lat="50.06979" lon="2.53301">
        <ele>124.15</ele>
        <time>2022-02-02T15:16:23Z</time>
      </trkpt>
      <trkpt lat="50.06982" lon="2.53307">
        <ele>125.11</ele>
        <time>2022-02-02T15:16:34Z</time>
      </trkpt>
      <trkpt lat="50.06982" lon="2.53318">
        <ele>125.59</ele>
        <time>2022-02-02T15:16:45Z</time>
      </trkpt>
      <trkpt lat="50.06986" lon="2.53329">
        <ele>125.59</ele>
        <time>2022-02-02T15:16:57Z</time>
      </trkpt>
      <trkpt lat="50.06993" lon="2.53348">
        <ele>125.11</ele>
        <time>2022-02-02T15:17:12Z</time>
      </trkpt>
      <trkpt lat="50.06997" lon="2.53367">
        <ele>126.07</ele>
        <time>2022-02-02T15:17:25Z</time>
      </trkpt>
      <trkpt lat="50.07002" lon="2.53384">
        <ele>125.11</ele>
        <time>2022-02-02T15:17:38Z</time>
      </trkpt>
      <trkpt lat="50.07003" lon="2.53389">
        <ele>125.11</ele>
        <time>2022-02-02T15:17:42Z</time>
      </trkpt>
      <trkpt lat="50.07008" lon="2.53408">
        <ele>125.59</ele>
        <time>2022-02-02T15:17:54Z</time>
      </trkpt>
      <trkpt lat="50.07012" lon="2.5343">
        <ele>126.07</ele>
        <time>2022-02-02T15:18:08Z</time>
      </trkpt>
      <trkpt lat="50.07015" lon="2.5345">
        <ele>126.07</ele>
        <time>2022-02-02T15:18:22Z</time>
      </trkpt>
      <trkpt lat="50.07019" lon="2.53467">
        <ele>126.55</ele>
        <time>2022-02-02T15:18:34Z</time>
      </trkpt>
      <trkpt lat="50.07023" lon="2.53482">
        <ele>127.03</ele>
        <time>2022-02-02T15:18:46Z</time>
      </trkpt>
      <trkpt lat="50.07026" lon="2.53499">
        <ele>128.47</ele>
        <time>2022-02-02T15:18:58Z</time>
      </trkpt>
      <trkpt lat="50.07028" lon="2.53507">
        <ele>128.95</ele>
        <time>2022-02-02T15:19:08Z</time>
      </trkpt>
      <trkpt lat="50.0703" lon="2.53506">
        <ele>127.99</ele>
        <time>2022-02-02T15:19:20Z</time>
      </trkpt>
      <trkpt lat="50.07037" lon="2.53503">
        <ele>126.55</ele>
        <time>2022-02-02T15:19:30Z</time>
      </trkpt>
      <trkpt lat="50.07047" lon="2.53497">
        <ele>124.15</ele>
        <time>2022-02-02T15:19:41Z</time>
      </trkpt>
      <trkpt lat="50.07054" lon="2.53494">
        <ele>122.71</ele>
        <time>2022-02-02T15:19:51Z</time>
      </trkpt>
      <trkpt lat="50.07063" lon="2.5349">
        <ele>118.86</ele>
        <time>2022-02-02T15:20:03Z</time>
      </trkpt>
      <trkpt lat="50.07066" lon="2.53488">
        <ele>118.86</ele>
        <time>2022-02-02T15:20:14Z</time>
      </trkpt>
      <trkpt lat="50.0707" lon="2.53485">
        <ele>120.78</ele>
        <time>2022-02-02T15:20:26Z</time>
      </trkpt>
      <trkpt lat="50.07074" lon="2.53482">
        <ele>123.19</ele>
        <time>2022-02-02T15:20:39Z</time>
      </trkpt>
      <trkpt lat="50.07079" lon="2.53477">
        <ele>123.19</ele>
        <time>2022-02-02T15:20:48Z</time>
      </trkpt>
      <trkpt lat="50.07081" lon="2.53473">
        <ele>124.63</ele>
        <time>2022-02-02T15:20:56Z</time>
      </trkpt>
      <trkpt lat="50.07086" lon="2.53459">
        <ele>124.15</ele>
        <time>2022-02-02T15:21:08Z</time>
      </trkpt>
      <trkpt lat="50.07093" lon="2.53439">
        <ele>124.15</ele>
        <time>2022-02-02T15:21:21Z</time>
      </trkpt>
      <trkpt lat="50.071" lon="2.53417">
        <ele>126.07</ele>
        <time>2022-02-02T15:21:34Z</time>
      </trkpt>
      <trkpt lat="50.071" lon="2.53412">
        <ele>127.03</ele>
        <time>2022-02-02T15:21:37Z</time>
      </trkpt>
      <trkpt lat="50.07099" lon="2.5339">
        <ele>127.51</ele>
        <time>2022-02-02T15:21:50Z</time>
      </trkpt>
      <trkpt lat="50.07094" lon="2.5337">
        <ele>126.55</ele>
        <time>2022-02-02T15:22:02Z</time>
      </trkpt>
      <trkpt lat="50.07089" lon="2.53346">
        <ele>126.07</ele>
        <time>2022-02-02T15:22:16Z</time>
      </trkpt>
      <trkpt lat="50.07089" lon="2.53343">
        <ele>126.07</ele>
        <time>2022-02-02T15:22:18Z</time>
      </trkpt>
      <trkpt lat="50.07093" lon="2.53339">
        <ele>125.59</ele>
        <time>2022-02-02T15:22:22Z</time>
      </trkpt>
      <trkpt lat="50.07109" lon="2.53332">
        <ele>126.55</ele>
        <time>2022-02-02T15:22:35Z</time>
      </trkpt>
      <trkpt lat="50.07124" lon="2.53322">
        <ele>128.47</ele>
        <time>2022-02-02T15:22:48Z</time>
      </trkpt>
      <trkpt lat="50.07125" lon="2.53321">
        <ele>128.47</ele>
        <time>2022-02-02T15:22:49Z</time>
      </trkpt>
      <trkpt lat="50.07127" lon="2.5332">
        <ele>128.95</ele>
        <time>2022-02-02T15:22:51Z</time>
      </trkpt>
      <trkpt lat="50.07141" lon="2.53313">
        <ele>128.95</ele>
        <time>2022-02-02T15:23:04Z</time>
      </trkpt>
      <trkpt lat="50.07152" lon="2.53305">
        <ele>130.4</ele>
        <time>2022-02-02T15:23:16Z</time>
      </trkpt>
      <trkpt lat="50.07169" lon="2.53311">
        <ele>131.36</ele>
        <time>2022-02-02T15:23:30Z</time>
      </trkpt>
      <trkpt lat="50.07182" lon="2.53324">
        <ele>131.36</ele>
        <time>2022-02-02T15:23:43Z</time>
      </trkpt>
      <trkpt lat="50.07194" lon="2.53337">
        <ele>132.32</ele>
        <time>2022-02-02T15:23:55Z</time>
      </trkpt>
      <trkpt lat="50.07205" lon="2.53341">
        <ele>133.76</ele>
        <time>2022-02-02T15:24:06Z</time>
      </trkpt>
      <trkpt lat="50.07206" lon="2.53341">
        <ele>133.76</ele>
        <time>2022-02-02T15:24:07Z</time>
      </trkpt>
      <trkpt lat="50.07215" lon="2.53337">
        <ele>135.2</ele>
        <time>2022-02-02T15:24:19Z</time>
      </trkpt>
      <trkpt lat="50.07219" lon="2.53332">
        <ele>136.64</ele>
        <time>2022-02-02T15:24:29Z</time>
      </trkpt>
      <trkpt lat="50.0722" lon="2.53331">
        <ele>136.64</ele>
        <time>2022-02-02T15:24:42Z</time>
      </trkpt>
      <trkpt lat="50.07221" lon="2.5333">
        <ele>138.09</ele>
        <time>2022-02-02T15:24:52Z</time>
      </trkpt>
      <trkpt lat="50.07225" lon="2.53335">
        <ele>138.57</ele>
        <time>2022-02-02T15:25:02Z</time>
      </trkpt>
      <trkpt lat="50.07229" lon="2.53348">
        <ele>138.09</ele>
        <time>2022-02-02T15:25:11Z</time>
      </trkpt>
      <trkpt lat="50.07232" lon="2.53359">
        <ele>136.64</ele>
        <time>2022-02-02T15:25:18Z</time>
      </trkpt>
      <trkpt lat="50.07233" lon="2.53377">
        <ele>135.68</ele>
        <time>2022-02-02T15:25:30Z</time>
      </trkpt>
      <trkpt lat="50.07237" lon="2.53397">
        <ele>132.8</ele>
        <time>2022-02-02T15:25:43Z</time>
      </trkpt>
      <trkpt lat="50.07239" lon="2.53406">
        <ele>132.8</ele>
        <time>2022-02-02T15:25:54Z</time>
      </trkpt>
      <trkpt lat="50.0724" lon="2.53408">
        <ele>135.2</ele>
        <time>2022-02-02T15:26:06Z</time>
      </trkpt>
      <trkpt lat="50.0724" lon="2.5341">
        <ele>136.16</ele>
        <time>2022-02-02T15:26:19Z</time>
      </trkpt>
      <trkpt lat="50.0724" lon="2.53412">
        <ele>137.13</ele>
        <time>2022-02-02T15:26:35Z</time>
      </trkpt>
      <trkpt lat="50.07241" lon="2.53413">
        <ele>138.09</ele>
        <time>2022-02-02T15:26:56Z</time>
      </trkpt>
      <trkpt lat="50.0724" lon="2.53413">
        <ele>137.61</ele>
        <time>2022-02-02T15:27:13Z</time>
      </trkpt>
      <trkpt lat="50.0724" lon="2.53414">
        <ele>138.09</ele>
        <time>2022-02-02T15:27:31Z</time>
      </trkpt>
      <trkpt lat="50.0724" lon="2.53415">
        <ele>138.57</ele>
        <time>2022-02-02T15:27:42Z</time>
      </trkpt>
      <trkpt lat="50.07241" lon="2.53416">
        <ele>139.05</ele>
        <time>2022-02-02T15:27:55Z</time>
      </trkpt>
      <trkpt lat="50.07242" lon="2.53419">
        <ele>139.05</ele>
        <time>2022-02-02T15:28:17Z</time>
      </trkpt>
      <trkpt lat="50.07242" lon="2.53419">
        <ele>138.57</ele>
        <time>2022-02-02T15:28:33Z</time>
      </trkpt>
      <trkpt lat="50.07242" lon="2.5342">
        <ele>139.05</ele>
        <time>2022-02-02T15:28:45Z</time>
      </trkpt>
      <trkpt lat="50.07241" lon="2.5342">
        <ele>139.05</ele>
        <time>2022-02-02T15:29:04Z</time>
      </trkpt>
      <trkpt lat="50.07242" lon="2.53417">
        <ele>137.61</ele>
        <time>2022-02-02T15:29:15Z</time>
      </trkpt>
      <trkpt lat="50.07242" lon="2.53411">
        <ele>137.13</ele>
        <time>2022-02-02T15:29:28Z</time>
      </trkpt>
      <trkpt lat="50.07244" lon="2.53395">
        <ele>134.24</ele>
        <time>2022-02-02T15:29:38Z</time>
      </trkpt>
      <trkpt lat="50.07246" lon="2.53391">
        <ele>133.76</ele>
        <time>2022-02-02T15:29:41Z</time>
      </trkpt>
      <trkpt lat="50.07249" lon="2.53373">
        <ele>131.84</ele>
        <time>2022-02-02T15:29:54Z</time>
      </trkpt>
      <trkpt lat="50.07254" lon="2.53357">
        <ele>133.28</ele>
        <time>2022-02-02T15:30:04Z</time>
      </trkpt>
      <trkpt lat="50.0726" lon="2.53334">
        <ele>132.8</ele>
        <time>2022-02-02T15:30:17Z</time>
      </trkpt>
      <trkpt lat="50.07263" lon="2.53325">
        <ele>130.88</ele>
        <time>2022-02-02T15:30:27Z</time>
      </trkpt>
      <trkpt lat="50.07264" lon="2.53318">
        <ele>131.36</ele>
        <time>2022-02-02T15:30:37Z</time>
      </trkpt>
      <trkpt lat="50.07265" lon="2.53317">
        <ele>131.36</ele>
        <time>2022-02-02T15:30:43Z</time>
      </trkpt>
      <trkpt lat="50.07266" lon="2.5331">
        <ele>130.88</ele>
        <time>2022-02-02T15:30:53Z</time>
      </trkpt>
      <trkpt lat="50.07269" lon="2.53307">
        <ele>128.95</ele>
        <time>2022-02-02T15:31:05Z</time>
      </trkpt>
      <trkpt lat="50.0727" lon="2.53299">
        <ele>130.4</ele>
        <time>2022-02-02T15:31:16Z</time>
      </trkpt>
      <trkpt lat="50.07269" lon="2.53293">
        <ele>130.4</ele>
        <time>2022-02-02T15:31:19Z</time>
      </trkpt>
      <trkpt lat="50.07274" lon="2.53284">
        <ele>130.88</ele>
        <time>2022-02-02T15:31:29Z</time>
      </trkpt>
      <trkpt lat="50.07277" lon="2.53288">
        <ele>130.88</ele>
        <time>2022-02-02T15:31:41Z</time>
      </trkpt>
      <trkpt lat="50.07278" lon="2.5329">
        <ele>130.88</ele>
        <time>2022-02-02T15:31:53Z</time>
      </trkpt>
      <trkpt lat="50.07279" lon="2.53289">
        <ele>131.84</ele>
        <time>2022-02-02T15:32:01Z</time>
      </trkpt>
      <trkpt lat="50.07288" lon="2.53281">
        <ele>130.88</ele>
        <time>2022-02-02T15:32:11Z</time>
      </trkpt>
      <trkpt lat="50.07288" lon="2.53281">
        <ele>130.88</ele>
        <time>2022-02-02T15:32:12Z</time>
      </trkpt>
      <trkpt lat="50.07294" lon="2.53272">
        <ele>131.36</ele>
        <time>2022-02-02T15:32:17Z</time>
      </trkpt>
      <trkpt lat="50.07308" lon="2.5325">
        <ele>133.76</ele>
        <time>2022-02-02T15:32:32Z</time>
      </trkpt>
      <trkpt lat="50.07324" lon="2.53227">
        <ele>135.2</ele>
        <time>2022-02-02T15:32:46Z</time>
      </trkpt>
      <trkpt lat="50.07334" lon="2.53211">
        <ele>136.64</ele>
        <time>2022-02-02T15:32:59Z</time>
      </trkpt>
      <trkpt lat="50.07344" lon="2.53195">
        <ele>137.13</ele>
        <time>2022-02-02T15:33:12Z</time>
      </trkpt>
      <trkpt lat="50.07351" lon="2.53178">
        <ele>136.64</ele>
        <time>2022-02-02T15:33:23Z</time>
      </trkpt>
      <trkpt lat="50.0736" lon="2.53159">
        <ele>136.64</ele>
        <time>2022-02-02T15:33:35Z</time>
      </trkpt>
      <trkpt lat="50.07367" lon="2.53144">
        <ele>135.68</ele>
        <time>2022-02-02T15:33:46Z</time>
      </trkpt>
      <trkpt lat="50.07372" lon="2.53132">
        <ele>135.68</ele>
        <time>2022-02-02T15:33:58Z</time>
      </trkpt>
      <trkpt lat="50.07372" lon="2.53127">
        <ele>135.68</ele>
        <time>2022-02-02T15:34:01Z</time>
      </trkpt>
      <trkpt lat="50.07378" lon="2.53106">
        <ele>135.68</ele>
        <time>2022-02-02T15:34:14Z</time>
      </trkpt>
      <trkpt lat="50.07383" lon="2.53092">
        <ele>135.68</ele>
        <time>2022-02-02T15:34:25Z</time>
      </trkpt>
      <trkpt lat="50.07388" lon="2.5308">
        <ele>135.2</ele>
        <time>2022-02-02T15:34:36Z</time>
      </trkpt>
      <trkpt lat="50.07388" lon="2.53072">
        <ele>136.16</ele>
        <time>2022-02-02T15:34:43Z</time>
      </trkpt>
      <trkpt lat="50.07378" lon="2.53046">
        <ele>136.16</ele>
        <time>2022-02-02T15:34:59Z</time>
      </trkpt>
      <trkpt lat="50.07371" lon="2.53018">
        <ele>134.24</ele>
        <time>2022-02-02T15:35:16Z</time>
      </trkpt>
      <trkpt lat="50.07373" lon="2.52993">
        <ele>136.16</ele>
        <time>2022-02-02T15:35:29Z</time>
      </trkpt>
      <trkpt lat="50.07377" lon="2.52974">
        <ele>137.61</ele>
        <time>2022-02-02T15:35:40Z</time>
      </trkpt>
      <trkpt lat="50.0738" lon="2.52955">
        <ele>137.13</ele>
        <time>2022-02-02T15:35:53Z</time>
      </trkpt>
      <trkpt lat="50.07384" lon="2.52939">
        <ele>138.09</ele>
        <time>2022-02-02T15:36:05Z</time>
      </trkpt>
      <trkpt lat="50.07386" lon="2.52924">
        <ele>137.13</ele>
        <time>2022-02-02T15:36:18Z</time>
      </trkpt>
      <trkpt lat="50.07386" lon="2.52915">
        <ele>137.13</ele>
        <time>2022-02-02T15:36:30Z</time>
      </trkpt>
      <trkpt lat="50.07386" lon="2.52899">
        <ele>135.2</ele>
        <time>2022-02-02T15:36:42Z</time>
      </trkpt>
      <trkpt lat="50.07385" lon="2.5289">
        <ele>135.68</ele>
        <time>2022-02-02T15:36:54Z</time>
      </trkpt>
      <trkpt lat="50.07385" lon="2.52884">
        <ele>135.2</ele>
        <time>2022-02-02T15:37:05Z</time>
      </trkpt>
      <trkpt lat="50.07386" lon="2.52883">
        <ele>134.24</ele>
        <time>2022-02-02T15:37:26Z</time>
      </trkpt>
      <trkpt lat="50.07385" lon="2.52884">
        <ele>134.24</ele>
        <time>2022-02-02T15:37:48Z</time>
      </trkpt>
      <trkpt lat="50.07383" lon="2.52884">
        <ele>135.2</ele>
        <time>2022-02-02T15:38:19Z</time>
      </trkpt>
      <trkpt lat="50.07383" lon="2.52883">
        <ele>135.2</ele>
        <time>2022-02-02T15:38:43Z</time>
      </trkpt>
      <trkpt lat="50.07383" lon="2.52882">
        <ele>135.68</ele>
        <time>2022-02-02T15:39:06Z</time>
      </trkpt>
      <trkpt lat="50.07382" lon="2.52882">
        <ele>135.2</ele>
        <time>2022-02-02T15:39:21Z</time>
      </trkpt>
      <trkpt lat="50.07385" lon="2.52864">
        <ele>133.76</ele>
        <time>2022-02-02T15:39:33Z</time>
      </trkpt>
      <trkpt lat="50.07393" lon="2.52861">
        <ele>133.76</ele>
        <time>2022-02-02T15:39:42Z</time>
      </trkpt>
      <trkpt lat="50.07401" lon="2.52862">
        <ele>134.72</ele>
        <time>2022-02-02T15:39:52Z</time>
      </trkpt>
      <trkpt lat="50.07405" lon="2.52855">
        <ele>134.72</ele>
        <time>2022-02-02T15:40:03Z</time>
      </trkpt>
      <trkpt lat="50.0741" lon="2.52845">
        <ele>135.2</ele>
        <time>2022-02-02T15:40:13Z</time>
      </trkpt>
      <trkpt lat="50.07411" lon="2.52846">
        <ele>135.68</ele>
        <time>2022-02-02T15:40:24Z</time>
      </trkpt>
      <trkpt lat="50.07412" lon="2.52846">
        <ele>135.2</ele>
        <time>2022-02-02T15:40:40Z</time>
      </trkpt>
      <trkpt lat="50.07413" lon="2.52845">
        <ele>135.68</ele>
        <time>2022-02-02T15:41:01Z</time>
      </trkpt>
      <trkpt lat="50.07412" lon="2.52838">
        <ele>137.61</ele>
        <time>2022-02-02T15:41:24Z</time>
      </trkpt>
      <trkpt lat="50.07413" lon="2.52835">
        <ele>136.64</ele>
        <time>2022-02-02T15:41:34Z</time>
      </trkpt>
      <trkpt lat="50.07411" lon="2.52826">
        <ele>134.72</ele>
        <time>2022-02-02T15:41:45Z</time>
      </trkpt>
      <trkpt lat="50.07405" lon="2.52817">
        <ele>134.72</ele>
        <time>2022-02-02T15:41:58Z</time>
      </trkpt>
      <trkpt lat="50.07399" lon="2.52808">
        <ele>134.72</ele>
        <time>2022-02-02T15:42:08Z</time>
      </trkpt>
      <trkpt lat="50.07397" lon="2.52804">
        <ele>134.24</ele>
        <time>2022-02-02T15:42:12Z</time>
      </trkpt>
      <trkpt lat="50.07387" lon="2.52791">
        <ele>133.28</ele>
        <time>2022-02-02T15:42:25Z</time>
      </trkpt>
      <trkpt lat="50.07377" lon="2.52774">
        <ele>131.84</ele>
        <time>2022-02-02T15:42:39Z</time>
      </trkpt>
      <trkpt lat="50.07369" lon="2.52755">
        <ele>129.92</ele>
        <time>2022-02-02T15:42:54Z</time>
      </trkpt>
      <trkpt lat="50.07368" lon="2.52751">
        <ele>130.4</ele>
        <time>2022-02-02T15:42:56Z</time>
      </trkpt>
      <trkpt lat="50.0736" lon="2.52736">
        <ele>128.47</ele>
        <time>2022-02-02T15:43:09Z</time>
      </trkpt>
      <trkpt lat="50.07356" lon="2.52729">
        <ele>127.03</ele>
        <time>2022-02-02T15:43:15Z</time>
      </trkpt>
      <trkpt lat="50.07348" lon="2.52706">
        <ele>125.59</ele>
        <time>2022-02-02T15:43:30Z</time>
      </trkpt>
      <trkpt lat="50.0734" lon="2.52688">
        <ele>126.07</ele>
        <time>2022-02-02T15:43:43Z</time>
      </trkpt>
      <trkpt lat="50.07332" lon="2.52664">
        <ele>127.99</ele>
        <time>2022-02-02T15:43:57Z</time>
      </trkpt>
      <trkpt lat="50.07323" lon="2.52643">
        <ele>128.95</ele>
        <time>2022-02-02T15:44:12Z</time>
      </trkpt>
      <trkpt lat="50.07314" lon="2.52628">
        <ele>129.43</ele>
        <time>2022-02-02T15:44:24Z</time>
      </trkpt>
      <trkpt lat="50.07312" lon="2.52627">
        <ele>129.92</ele>
        <time>2022-02-02T15:44:26Z</time>
      </trkpt>
      <trkpt lat="50.07296" lon="2.52621">
        <ele>131.36</ele>
        <time>2022-02-02T15:44:40Z</time>
      </trkpt>
      <trkpt lat="50.07283" lon="2.52617">
        <ele>133.28</ele>
        <time>2022-02-02T15:44:51Z</time>
      </trkpt>
      <trkpt lat="50.07263" lon="2.52623">
        <ele>134.72</ele>
        <time>2022-02-02T15:45:09Z</time>
      </trkpt>
      <trkpt lat="50.07251" lon="2.52632">
        <ele>135.68</ele>
        <time>2022-02-02T15:45:21Z</time>
      </trkpt>
      <trkpt lat="50.07237" lon="2.5264">
        <ele>135.68</ele>
        <time>2022-02-02T15:45:34Z</time>
      </trkpt>
      <trkpt lat="50.0722" lon="2.52651">
        <ele>135.2</ele>
        <time>2022-02-02T15:45:49Z</time>
      </trkpt>
      <trkpt lat="50.07203" lon="2.52661">
        <ele>135.2</ele>
        <time>2022-02-02T15:46:04Z</time>
      </trkpt>
      <trkpt lat="50.07189" lon="2.52671">
        <ele>135.2</ele>
        <time>2022-02-02T15:46:17Z</time>
      </trkpt>
      <trkpt lat="50.0717" lon="2.52684">
        <ele>137.13</ele>
        <time>2022-02-02T15:46:33Z</time>
      </trkpt>
      <trkpt lat="50.07157" lon="2.52692">
        <ele>138.09</ele>
        <time>2022-02-02T15:46:45Z</time>
      </trkpt>
      <trkpt lat="50.07141" lon="2.52701">
        <ele>139.53</ele>
        <time>2022-02-02T15:46:58Z</time>
      </trkpt>
      <trkpt lat="50.07125" lon="2.52713">
        <ele>140.01</ele>
        <time>2022-02-02T15:47:11Z</time>
      </trkpt>
      <trkpt lat="50.07111" lon="2.52716">
        <ele>140.01</ele>
        <time>2022-02-02T15:47:23Z</time>
      </trkpt>
      <trkpt lat="50.07099" lon="2.52695">
        <ele>137.61</ele>
        <time>2022-02-02T15:47:37Z</time>
      </trkpt>
      <trkpt lat="50.07093" lon="2.52669">
        <ele>135.2</ele>
        <time>2022-02-02T15:47:51Z</time>
      </trkpt>
      <trkpt lat="50.07085" lon="2.52647">
        <ele>136.16</ele>
        <time>2022-02-02T15:48:05Z</time>
      </trkpt>
      <trkpt lat="50.07081" lon="2.52626">
        <ele>136.16</ele>
        <time>2022-02-02T15:48:17Z</time>
      </trkpt>
      <trkpt lat="50.07075" lon="2.52614">
        <ele>136.16</ele>
        <time>2022-02-02T15:48:26Z</time>
      </trkpt>
      <trkpt lat="50.07072" lon="2.52615">
        <ele>136.16</ele>
        <time>2022-02-02T15:48:29Z</time>
      </trkpt>
      <trkpt lat="50.07069" lon="2.52612">
        <ele>136.64</ele>
        <time>2022-02-02T15:48:33Z</time>
      </trkpt>
      <trkpt lat="50.07054" lon="2.52612">
        <ele>137.13</ele>
        <time>2022-02-02T15:48:47Z</time>
      </trkpt>
      <trkpt lat="50.07042" lon="2.52611">
        <ele>138.57</ele>
        <time>2022-02-02T15:49:01Z</time>
      </trkpt>
      <trkpt lat="50.07042" lon="2.5261">
        <ele>139.05</ele>
        <time>2022-02-02T15:49:02Z</time>
      </trkpt>
    </trkseg>
  </trk>
</gpx>